<?xml version='1.0' encoding='UTF-8'?><gpx version="1.1" creator="JPX - https://github.com/jenetics/jpx" xmlns="http://www.topografix.com/GPX/1/1"><trk><trkseg><trkpt lat="43.7077273" lon="10.4324465"><ele>1.9999999999999998</ele><time>2026-03-25T13:34:16.904Z</time></trkpt><trkpt lat="43.7076944" lon="10.4325634"><ele>2.0</ele><time>2026-03-25T13:34:17.904Z</time></trkpt><trkpt lat="43.7076569" lon="10.4326747"><ele>2.0</ele><time>2026-03-25T13:34:18.904Z</time></trkpt><trkpt lat="43.7076193" lon="10.4327851"><ele>2.0</ele><time>2026-03-25T13:34:19.905Z</time></trkpt><trkpt lat="43.7075818" lon="10.4328896"><ele>1.9999999999999998</ele><time>2026-03-25T13:34:20.904Z</time></trkpt><trkpt lat="43.7075421" lon="10.4329949"><ele>2.0</ele><time>2026-03-25T13:34:21.905Z</time></trkpt><trkpt lat="43.7074998" lon="10.4331043"><ele>2.2</ele><time>2026-03-25T13:34:22.905Z</time></trkpt><trkpt lat="43.7074564" lon="10.4332178"><ele>2.4000000000000004</ele><time>2026-03-25T13:34:23.905Z</time></trkpt><trkpt lat="43.7074145" lon="10.4333333"><ele>2.5999999999999996</ele><time>2026-03-25T13:34:24.906Z</time></trkpt><trkpt lat="43.7073714" lon="10.4334515"><ele>2.8</ele><time>2026-03-25T13:34:25.905Z</time></trkpt><trkpt lat="43.7073258" lon="10.4335829"><ele>3.0</ele><time>2026-03-25T13:34:26.904Z</time></trkpt><trkpt lat="43.7072737" lon="10.4337296"><ele>3.0</ele><time>2026-03-25T13:34:27.906Z</time></trkpt><trkpt lat="43.7072208" lon="10.433886"><ele>3.0</ele><time>2026-03-25T13:34:28.905Z</time></trkpt><trkpt lat="43.7071697" lon="10.4340365"><ele>3.0</ele><time>2026-03-25T13:34:29.904Z</time></trkpt><trkpt lat="43.7071199" lon="10.4341785"><ele>3.0</ele><time>2026-03-25T13:34:30.904Z</time></trkpt><trkpt lat="43.7070694" lon="10.4343111"><ele>3.0</ele><time>2026-03-25T13:34:31.905Z</time></trkpt><trkpt lat="43.7070166" lon="10.4344361"><ele>3.0</ele><time>2026-03-25T13:34:32.904Z</time></trkpt><trkpt lat="43.706961" lon="10.4345584"><ele>3.0</ele><time>2026-03-25T13:34:33.905Z</time></trkpt><trkpt lat="43.7068974" lon="10.4346761"><ele>3.0</ele><time>2026-03-25T13:34:34.905Z</time></trkpt><trkpt lat="43.7068254" lon="10.4347942"><ele>3.0</ele><time>2026-03-25T13:34:35.905Z</time></trkpt><trkpt lat="43.7067482" lon="10.4349083"><ele>3.3333333333333335</ele><time>2026-03-25T13:34:36.906Z</time></trkpt><trkpt lat="43.70668" lon="10.4350004"><ele>3.666666666666667</ele><time>2026-03-25T13:34:37.905Z</time></trkpt><trkpt lat="43.7066233" lon="10.4350699"><ele>4.0</ele><time>2026-03-25T13:34:38.906Z</time></trkpt><trkpt lat="43.7065702" lon="10.4351269"><ele>4.333333333333334</ele><time>2026-03-25T13:34:39.904Z</time></trkpt><trkpt lat="43.706511" lon="10.4351817"><ele>4.666666666666667</ele><time>2026-03-25T13:34:40.905Z</time></trkpt><trkpt lat="43.706438" lon="10.435239"><ele>5.0</ele><time>2026-03-25T13:34:41.906Z</time></trkpt><trkpt lat="43.7063607" lon="10.4352986"><ele>5.0</ele><time>2026-03-25T13:34:42.905Z</time></trkpt><trkpt lat="43.7062849" lon="10.4353574"><ele>5.0</ele><time>2026-03-25T13:34:43.905Z</time></trkpt><trkpt lat="43.7062126" lon="10.4354081"><ele>5.0</ele><time>2026-03-25T13:34:44.905Z</time></trkpt><trkpt lat="43.706137" lon="10.4354529"><ele>5.0</ele><time>2026-03-25T13:34:45.904Z</time></trkpt><trkpt lat="43.7060532" lon="10.4354934"><ele>5.0</ele><time>2026-03-25T13:34:46.905Z</time></trkpt><trkpt lat="43.7059601" lon="10.4355254"><ele>5.0</ele><time>2026-03-25T13:34:47.905Z</time></trkpt><trkpt lat="43.7058615" lon="10.4355536"><ele>4.8</ele><time>2026-03-25T13:34:48.904Z</time></trkpt><trkpt lat="43.7057603" lon="10.4355761"><ele>4.6</ele><time>2026-03-25T13:34:49.905Z</time></trkpt><trkpt lat="43.7056577" lon="10.4355929"><ele>4.4</ele><time>2026-03-25T13:34:50.905Z</time></trkpt><trkpt lat="43.7055555" lon="10.4356068"><ele>4.2</ele><time>2026-03-25T13:34:51.904Z</time></trkpt><trkpt lat="43.7054554" lon="10.435624"><ele>4.0</ele><time>2026-03-25T13:34:52.906Z</time></trkpt><trkpt lat="43.7053537" lon="10.4356385"><ele>4.0</ele><time>2026-03-25T13:34:53.905Z</time></trkpt><trkpt lat="43.7052501" lon="10.4356491"><ele>4.0</ele><time>2026-03-25T13:34:54.905Z</time></trkpt><trkpt lat="43.7051481" lon="10.4356592"><ele>4.0</ele><time>2026-03-25T13:34:55.906Z</time></trkpt><trkpt lat="43.7050484" lon="10.4356674"><ele>4.0</ele><time>2026-03-25T13:34:56.905Z</time></trkpt><trkpt lat="43.7049513" lon="10.4356777"><ele>4.0</ele><time>2026-03-25T13:34:57.906Z</time></trkpt><trkpt lat="43.70486" lon="10.4356901"><ele>4.166666666666666</ele><time>2026-03-25T13:34:58.905Z</time></trkpt><trkpt lat="43.7047809" lon="10.4357021"><ele>4.333333333333333</ele><time>2026-03-25T13:34:59.905Z</time></trkpt><trkpt lat="43.7047092" lon="10.4357179"><ele>4.5</ele><time>2026-03-25T13:35:00.905Z</time></trkpt><trkpt lat="43.7046346" lon="10.4357314"><ele>4.666666666666667</ele><time>2026-03-25T13:35:01.905Z</time></trkpt><trkpt lat="43.7045531" lon="10.4357424"><ele>4.833333333333334</ele><time>2026-03-25T13:35:02.905Z</time></trkpt><trkpt lat="43.704464" lon="10.4357499"><ele>5.0</ele><time>2026-03-25T13:35:03.906Z</time></trkpt><trkpt lat="43.7043669" lon="10.4357578"><ele>5.0</ele><time>2026-03-25T13:35:04.906Z</time></trkpt><trkpt lat="43.7042624" lon="10.4357667"><ele>5.0</ele><time>2026-03-25T13:35:05.905Z</time></trkpt><trkpt lat="43.7041567" lon="10.4357791"><ele>5.0</ele><time>2026-03-25T13:35:06.904Z</time></trkpt><trkpt lat="43.7040571" lon="10.4357903"><ele>5.0</ele><time>2026-03-25T13:35:07.906Z</time></trkpt><trkpt lat="43.7039652" lon="10.4357991"><ele>5.0</ele><time>2026-03-25T13:35:08.905Z</time></trkpt><trkpt lat="43.7038749" lon="10.4358059"><ele>5.0</ele><time>2026-03-25T13:35:09.905Z</time></trkpt><trkpt lat="43.7037831" lon="10.4358098"><ele>5.0</ele><time>2026-03-25T13:35:10.905Z</time></trkpt><trkpt lat="43.7036888" lon="10.435815"><ele>5.0</ele><time>2026-03-25T13:35:11.906Z</time></trkpt><trkpt lat="43.7035893" lon="10.435824"><ele>5.0</ele><time>2026-03-25T13:35:12.905Z</time></trkpt><trkpt lat="43.7034811" lon="10.4358457"><ele>5.0</ele><time>2026-03-25T13:35:13.905Z</time></trkpt><trkpt lat="43.7033614" lon="10.4358608"><ele>4.0</ele><time>2026-03-25T13:35:14.905Z</time></trkpt><trkpt lat="43.7032382" lon="10.4358713"><ele>3.0</ele><time>2026-03-25T13:35:15.905Z</time></trkpt><trkpt lat="43.7031126" lon="10.4358805"><ele>2.0</ele><time>2026-03-25T13:35:16.905Z</time></trkpt><trkpt lat="43.7029833" lon="10.4358882"><ele>1.0</ele><time>2026-03-25T13:35:17.905Z</time></trkpt><trkpt lat="43.7028485" lon="10.4358986"><ele>1.5</ele><time>2026-03-25T13:35:18.905Z</time></trkpt><trkpt lat="43.7027184" lon="10.4359109"><ele>2.0</ele><time>2026-03-25T13:35:19.905Z</time></trkpt><trkpt lat="43.7025886" lon="10.4359187"><ele>2.5</ele><time>2026-03-25T13:35:20.904Z</time></trkpt><trkpt lat="43.7024566" lon="10.4359237"><ele>3.0</ele><time>2026-03-25T13:35:21.906Z</time></trkpt><trkpt lat="43.7023151" lon="10.4359304"><ele>3.0</ele><time>2026-03-25T13:35:22.905Z</time></trkpt><trkpt lat="43.7021743" lon="10.435946"><ele>3.0</ele><time>2026-03-25T13:35:23.905Z</time></trkpt><trkpt lat="43.7020314" lon="10.435965"><ele>3.0</ele><time>2026-03-25T13:35:24.904Z</time></trkpt><trkpt lat="43.7018937" lon="10.4359818"><ele>3.0</ele><time>2026-03-25T13:35:25.905Z</time></trkpt><trkpt lat="43.7017573" lon="10.4359985"><ele>3.0</ele><time>2026-03-25T13:35:26.905Z</time></trkpt><trkpt lat="43.7016256" lon="10.4360129"><ele>3.0</ele><time>2026-03-25T13:35:27.904Z</time></trkpt><trkpt lat="43.7015034" lon="10.4360244"><ele>3.0</ele><time>2026-03-25T13:35:28.905Z</time></trkpt><trkpt lat="43.7013912" lon="10.4360358"><ele>3.0</ele><time>2026-03-25T13:35:29.906Z</time></trkpt><trkpt lat="43.7012866" lon="10.4360422"><ele>3.0</ele><time>2026-03-25T13:35:30.904Z</time></trkpt><trkpt lat="43.701189" lon="10.4360463"><ele>3.0</ele><time>2026-03-25T13:35:31.906Z</time></trkpt><trkpt lat="43.7010986" lon="10.4360564"><ele>3.0</ele><time>2026-03-25T13:35:32.904Z</time></trkpt><trkpt lat="43.7010143" lon="10.4360628"><ele>3.0</ele><time>2026-03-25T13:35:33.906Z</time></trkpt><trkpt lat="43.7009317" lon="10.4360693"><ele>3.0</ele><time>2026-03-25T13:35:34.904Z</time></trkpt><trkpt lat="43.7008628" lon="10.4360754"><ele>3.0</ele><time>2026-03-25T13:35:35.905Z</time></trkpt><trkpt lat="43.7007692" lon="10.4360794"><ele>3.0</ele><time>2026-03-25T13:35:37.904Z</time></trkpt><trkpt lat="43.7006826" lon="10.4360479"><ele>3.0</ele><time>2026-03-25T13:35:39.904Z</time></trkpt><trkpt lat="43.7005704" lon="10.4359499"><ele>3.0</ele><time>2026-03-25T13:35:41.905Z</time></trkpt><trkpt lat="43.7005056" lon="10.4359046"><ele>3.0</ele><time>2026-03-25T13:35:42.906Z</time></trkpt><trkpt lat="43.7004393" lon="10.4358852"><ele>3.0</ele><time>2026-03-25T13:35:43.905Z</time></trkpt><trkpt lat="43.7003748" lon="10.4358899"><ele>3.0</ele><time>2026-03-25T13:35:44.905Z</time></trkpt><trkpt lat="43.7002575" lon="10.4359774"><ele>3.2</ele><time>2026-03-25T13:35:46.906Z</time></trkpt><trkpt lat="43.7001974" lon="10.4360323"><ele>3.4</ele><time>2026-03-25T13:35:47.904Z</time></trkpt><trkpt lat="43.7001256" lon="10.436085"><ele>3.6000000000000005</ele><time>2026-03-25T13:35:48.905Z</time></trkpt><trkpt lat="43.700041" lon="10.4361201"><ele>3.8000000000000003</ele><time>2026-03-25T13:35:49.904Z</time></trkpt><trkpt lat="43.6999385" lon="10.4361474"><ele>4.0</ele><time>2026-03-25T13:35:50.905Z</time></trkpt><trkpt lat="43.6998213" lon="10.4361621"><ele>4.0</ele><time>2026-03-25T13:35:51.905Z</time></trkpt><trkpt lat="43.6996995" lon="10.4361668"><ele>4.0</ele><time>2026-03-25T13:35:52.906Z</time></trkpt><trkpt lat="43.6995855" lon="10.4361692"><ele>4.0</ele><time>2026-03-25T13:35:53.906Z</time></trkpt><trkpt lat="43.6994616" lon="10.4361664"><ele>4.0</ele><time>2026-03-25T13:35:54.905Z</time></trkpt><trkpt lat="43.6993308" lon="10.4361585"><ele>4.25</ele><time>2026-03-25T13:35:55.905Z</time></trkpt><trkpt lat="43.6992016" lon="10.4361446"><ele>4.5</ele><time>2026-03-25T13:35:56.905Z</time></trkpt><trkpt lat="43.6990762" lon="10.4361264"><ele>4.75</ele><time>2026-03-25T13:35:57.905Z</time></trkpt><trkpt lat="43.6989578" lon="10.4360984"><ele>5.0</ele><time>2026-03-25T13:35:58.906Z</time></trkpt><trkpt lat="43.6988386" lon="10.436067"><ele>5.0</ele><time>2026-03-25T13:35:59.905Z</time></trkpt><trkpt lat="43.6987147" lon="10.4360298"><ele>5.0</ele><time>2026-03-25T13:36:00.904Z</time></trkpt><trkpt lat="43.6985964" lon="10.4359973"><ele>5.0</ele><time>2026-03-25T13:36:01.906Z</time></trkpt><trkpt lat="43.6984879" lon="10.4359665"><ele>5.0</ele><time>2026-03-25T13:36:02.906Z</time></trkpt><trkpt lat="43.6983881" lon="10.4359311"><ele>4.5</ele><time>2026-03-25T13:36:03.905Z</time></trkpt><trkpt lat="43.6982987" lon="10.4359039"><ele>4.0</ele><time>2026-03-25T13:36:04.905Z</time></trkpt><trkpt lat="43.6982196" lon="10.4358811"><ele>3.5</ele><time>2026-03-25T13:36:05.904Z</time></trkpt><trkpt lat="43.6981446" lon="10.4358607"><ele>3.0</ele><time>2026-03-25T13:36:06.904Z</time></trkpt><trkpt lat="43.6980729" lon="10.4358386"><ele>2.5</ele><time>2026-03-25T13:36:07.905Z</time></trkpt><trkpt lat="43.6980021" lon="10.4358135"><ele>2.0</ele><time>2026-03-25T13:36:08.904Z</time></trkpt><trkpt lat="43.6979374" lon="10.4357943"><ele>2.0</ele><time>2026-03-25T13:36:09.904Z</time></trkpt><trkpt lat="43.6978752" lon="10.4357696"><ele>2.0</ele><time>2026-03-25T13:36:10.905Z</time></trkpt><trkpt lat="43.6977605" lon="10.4357288"><ele>2.0</ele><time>2026-03-25T13:36:12.905Z</time></trkpt><trkpt lat="43.6976546" lon="10.4356953"><ele>2.0</ele><time>2026-03-25T13:36:14.905Z</time></trkpt><trkpt lat="43.6975667" lon="10.435674"><ele>2.0</ele><time>2026-03-25T13:36:16.904Z</time></trkpt><trkpt lat="43.6974952" lon="10.4356563"><ele>2.5</ele><time>2026-03-25T13:36:18.905Z</time></trkpt><trkpt lat="43.6974283" lon="10.4356341"><ele>3.0</ele><time>2026-03-25T13:36:20.905Z</time></trkpt><trkpt lat="43.6973665" lon="10.435612"><ele>3.5</ele><time>2026-03-25T13:36:22.905Z</time></trkpt><trkpt lat="43.697305" lon="10.4355862"><ele>4.0</ele><time>2026-03-25T13:36:24.905Z</time></trkpt><trkpt lat="43.6972325" lon="10.4355645"><ele>4.5</ele><time>2026-03-25T13:36:26.906Z</time></trkpt><trkpt lat="43.6971451" lon="10.4355383"><ele>5.0</ele><time>2026-03-25T13:36:28.904Z</time></trkpt><trkpt lat="43.6970536" lon="10.4355071"><ele>5.0</ele><time>2026-03-25T13:36:30.904Z</time></trkpt><trkpt lat="43.6969758" lon="10.4354833"><ele>5.0</ele><time>2026-03-25T13:36:33.905Z</time></trkpt><trkpt lat="43.6968984" lon="10.4354994"><ele>5.0</ele><time>2026-03-25T13:36:49.905Z</time></trkpt><trkpt lat="43.696788" lon="10.4354789"><ele>5.0</ele><time>2026-03-25T13:36:52.904Z</time></trkpt><trkpt lat="43.6967063" lon="10.43541"><ele>5.0</ele><time>2026-03-25T13:36:53.905Z</time></trkpt><trkpt lat="43.6966128" lon="10.4353473"><ele>5.333333333333334</ele><time>2026-03-25T13:36:55.904Z</time></trkpt><trkpt lat="43.6965463" lon="10.435327"><ele>5.666666666666667</ele><time>2026-03-25T13:36:57.905Z</time></trkpt><trkpt lat="43.696452" lon="10.4353023"><ele>6.0</ele><time>2026-03-25T13:37:00.783Z</time></trkpt><trkpt lat="43.6963656" lon="10.4352726"><ele>6.333333333333334</ele><time>2026-03-25T13:37:02.905Z</time></trkpt><trkpt lat="43.6962769" lon="10.4352517"><ele>6.666666666666667</ele><time>2026-03-25T13:37:04.905Z</time></trkpt><trkpt lat="43.6962066" lon="10.4352478"><ele>7.0</ele><time>2026-03-25T13:37:06.905Z</time></trkpt><trkpt lat="43.6961199" lon="10.4352128"><ele>6.833333333333334</ele><time>2026-03-25T13:37:09.906Z</time></trkpt><trkpt lat="43.6960438" lon="10.435198"><ele>6.666666666666667</ele><time>2026-03-25T13:37:12.905Z</time></trkpt><trkpt lat="43.6959675" lon="10.4351709"><ele>6.5</ele><time>2026-03-25T13:37:15.904Z</time></trkpt><trkpt lat="43.6958822" lon="10.4351445"><ele>6.333333333333334</ele><time>2026-03-25T13:37:18.905Z</time></trkpt><trkpt lat="43.695815" lon="10.4351216"><ele>6.166666666666667</ele><time>2026-03-25T13:37:27.904Z</time></trkpt><trkpt lat="43.6957339" lon="10.4351027"><ele>6.0</ele><time>2026-03-25T13:37:29.905Z</time></trkpt><trkpt lat="43.6956662" lon="10.4350851"><ele>5.999999999999999</ele><time>2026-03-25T13:37:31.904Z</time></trkpt><trkpt lat="43.6955904" lon="10.4350619"><ele>6.0</ele><time>2026-03-25T13:37:35.903Z</time></trkpt><trkpt lat="43.6955277" lon="10.4350416"><ele>6.0</ele><time>2026-03-25T13:37:39.904Z</time></trkpt><trkpt lat="43.6954629" lon="10.4350287"><ele>6.0</ele><time>2026-03-25T13:37:44.904Z</time></trkpt><trkpt lat="43.6953949" lon="10.4350135"><ele>6.0</ele><time>2026-03-25T13:37:50.904Z</time></trkpt><trkpt lat="43.6953228" lon="10.4349847"><ele>5.999999999999999</ele><time>2026-03-25T13:37:53.905Z</time></trkpt><trkpt lat="43.6952344" lon="10.434972"><ele>6.0</ele><time>2026-03-25T13:37:55.903Z</time></trkpt><trkpt lat="43.6951608" lon="10.4349608"><ele>5.833333333333333</ele><time>2026-03-25T13:37:57.904Z</time></trkpt><trkpt lat="43.6950754" lon="10.4349466"><ele>5.666666666666667</ele><time>2026-03-25T13:38:00.904Z</time></trkpt><trkpt lat="43.6949809" lon="10.4349384"><ele>5.5</ele><time>2026-03-25T13:38:03.903Z</time></trkpt><trkpt lat="43.6948922" lon="10.4349313"><ele>5.333333333333334</ele><time>2026-03-25T13:38:06.904Z</time></trkpt><trkpt lat="43.6948199" lon="10.4349287"><ele>5.166666666666667</ele><time>2026-03-25T13:38:09.904Z</time></trkpt><trkpt lat="43.6947519" lon="10.4349236"><ele>5.0</ele><time>2026-03-25T13:38:12.904Z</time></trkpt><trkpt lat="43.6946883" lon="10.4349207"><ele>5.0</ele><time>2026-03-25T13:38:15.904Z</time></trkpt><trkpt lat="43.6946026" lon="10.4349143"><ele>5.0</ele><time>2026-03-25T13:38:18.904Z</time></trkpt><trkpt lat="43.6945285" lon="10.4349109"><ele>5.0</ele><time>2026-03-25T13:38:20.904Z</time></trkpt><trkpt lat="43.6944391" lon="10.4349116"><ele>5.0</ele><time>2026-03-25T13:38:22.904Z</time></trkpt><trkpt lat="43.6943342" lon="10.4349144"><ele>5.0</ele><time>2026-03-25T13:38:24.905Z</time></trkpt><trkpt lat="43.6942399" lon="10.4349171"><ele>5.0</ele><time>2026-03-25T13:38:26.904Z</time></trkpt><trkpt lat="43.6941699" lon="10.4349261"><ele>4.833333333333334</ele><time>2026-03-25T13:38:28.904Z</time></trkpt><trkpt lat="43.6940908" lon="10.4349282"><ele>4.666666666666667</ele><time>2026-03-25T13:38:31.904Z</time></trkpt><trkpt lat="43.6940055" lon="10.4349386"><ele>4.5</ele><time>2026-03-25T13:38:35.904Z</time></trkpt><trkpt lat="43.6939139" lon="10.4349531"><ele>4.333333333333333</ele><time>2026-03-25T13:38:38.904Z</time></trkpt><trkpt lat="43.6938259" lon="10.4349677"><ele>4.166666666666666</ele><time>2026-03-25T13:38:41.904Z</time></trkpt><trkpt lat="43.6937398" lon="10.4349705"><ele>4.0</ele><time>2026-03-25T13:38:44.904Z</time></trkpt><trkpt lat="43.693661" lon="10.4349747"><ele>4.0</ele><time>2026-03-25T13:38:46.904Z</time></trkpt><trkpt lat="43.693546" lon="10.4349708"><ele>4.0</ele><time>2026-03-25T13:38:48.904Z</time></trkpt><trkpt lat="43.6934729" lon="10.4349671"><ele>4.0</ele><time>2026-03-25T13:38:49.905Z</time></trkpt><trkpt lat="43.6933872" lon="10.4349629"><ele>4.0</ele><time>2026-03-25T13:38:50.904Z</time></trkpt><trkpt lat="43.6932996" lon="10.4349611"><ele>4.0</ele><time>2026-03-25T13:38:51.903Z</time></trkpt><trkpt lat="43.6931958" lon="10.4349668"><ele>4.0</ele><time>2026-03-25T13:38:52.904Z</time></trkpt><trkpt lat="43.6930679" lon="10.4349776"><ele>4.0</ele><time>2026-03-25T13:38:53.903Z</time></trkpt><trkpt lat="43.692925" lon="10.4349857"><ele>4.0</ele><time>2026-03-25T13:38:54.904Z</time></trkpt><trkpt lat="43.6927768" lon="10.4349945"><ele>4.0</ele><time>2026-03-25T13:38:55.904Z</time></trkpt><trkpt lat="43.6926247" lon="10.4350056"><ele>3.5</ele><time>2026-03-25T13:38:56.904Z</time></trkpt><trkpt lat="43.692479" lon="10.4350156"><ele>3.0</ele><time>2026-03-25T13:38:57.904Z</time></trkpt><trkpt lat="43.6923302" lon="10.435025"><ele>2.5</ele><time>2026-03-25T13:38:58.904Z</time></trkpt><trkpt lat="43.6921902" lon="10.4350303"><ele>2.0</ele><time>2026-03-25T13:38:59.905Z</time></trkpt><trkpt lat="43.6920523" lon="10.435041"><ele>2.0</ele><time>2026-03-25T13:39:00.903Z</time></trkpt><trkpt lat="43.6919243" lon="10.4350503"><ele>2.0</ele><time>2026-03-25T13:39:01.905Z</time></trkpt><trkpt lat="43.6918015" lon="10.4350522"><ele>2.0</ele><time>2026-03-25T13:39:02.903Z</time></trkpt><trkpt lat="43.691682" lon="10.4350533"><ele>2.0</ele><time>2026-03-25T13:39:03.904Z</time></trkpt><trkpt lat="43.6915633" lon="10.4350542"><ele>2.0</ele><time>2026-03-25T13:39:04.903Z</time></trkpt><trkpt lat="43.6914495" lon="10.435049"><ele>2.0</ele><time>2026-03-25T13:39:05.904Z</time></trkpt><trkpt lat="43.6913403" lon="10.4350425"><ele>2.0</ele><time>2026-03-25T13:39:06.904Z</time></trkpt><trkpt lat="43.6912388" lon="10.4350306"><ele>2.0</ele><time>2026-03-25T13:39:07.904Z</time></trkpt><trkpt lat="43.6911418" lon="10.4350221"><ele>2.0</ele><time>2026-03-25T13:39:08.904Z</time></trkpt><trkpt lat="43.6910509" lon="10.4350068"><ele>1.8333333333333333</ele><time>2026-03-25T13:39:09.904Z</time></trkpt><trkpt lat="43.6909655" lon="10.4349856"><ele>1.6666666666666665</ele><time>2026-03-25T13:39:10.904Z</time></trkpt><trkpt lat="43.6908879" lon="10.4349622"><ele>1.5</ele><time>2026-03-25T13:39:11.903Z</time></trkpt><trkpt lat="43.6908122" lon="10.434937"><ele>1.3333333333333333</ele><time>2026-03-25T13:39:12.904Z</time></trkpt><trkpt lat="43.690737" lon="10.434908"><ele>1.1666666666666665</ele><time>2026-03-25T13:39:13.903Z</time></trkpt><trkpt lat="43.690664" lon="10.4348717"><ele>1.0</ele><time>2026-03-25T13:39:14.903Z</time></trkpt><trkpt lat="43.6905823" lon="10.4348334"><ele>1.0</ele><time>2026-03-25T13:39:15.905Z</time></trkpt><trkpt lat="43.6904856" lon="10.4347904"><ele>1.0</ele><time>2026-03-25T13:39:16.903Z</time></trkpt><trkpt lat="43.6903812" lon="10.4347459"><ele>1.0</ele><time>2026-03-25T13:39:17.904Z</time></trkpt><trkpt lat="43.6902637" lon="10.4346923"><ele>1.0</ele><time>2026-03-25T13:39:18.905Z</time></trkpt><trkpt lat="43.6901292" lon="10.4346234"><ele>1.6666666666666665</ele><time>2026-03-25T13:39:19.904Z</time></trkpt><trkpt lat="43.6899854" lon="10.4345413"><ele>2.3333333333333335</ele><time>2026-03-25T13:39:20.904Z</time></trkpt><trkpt lat="43.6898392" lon="10.4344566"><ele>3.0</ele><time>2026-03-25T13:39:21.904Z</time></trkpt><trkpt lat="43.6896924" lon="10.4343658"><ele>3.0</ele><time>2026-03-25T13:39:22.904Z</time></trkpt><trkpt lat="43.689552" lon="10.4342799"><ele>3.0</ele><time>2026-03-25T13:39:23.904Z</time></trkpt><trkpt lat="43.689378" lon="10.4341541"><ele>3.0</ele><time>2026-03-25T13:39:24.904Z</time></trkpt><trkpt lat="43.6891978" lon="10.4340295"><ele>2.6666666666666665</ele><time>2026-03-25T13:39:25.904Z</time></trkpt><trkpt lat="43.6890158" lon="10.4339051"><ele>2.333333333333333</ele><time>2026-03-25T13:39:26.904Z</time></trkpt><trkpt lat="43.6888435" lon="10.4337891"><ele>2.0</ele><time>2026-03-25T13:39:27.903Z</time></trkpt><trkpt lat="43.6886802" lon="10.4336796"><ele>1.6666666666666665</ele><time>2026-03-25T13:39:28.904Z</time></trkpt><trkpt lat="43.6885246" lon="10.4335738"><ele>1.3333333333333333</ele><time>2026-03-25T13:39:29.904Z</time></trkpt><trkpt lat="43.6883754" lon="10.433471"><ele>1.0</ele><time>2026-03-25T13:39:30.904Z</time></trkpt><trkpt lat="43.6882272" lon="10.4333667"><ele>1.0</ele><time>2026-03-25T13:39:31.904Z</time></trkpt><trkpt lat="43.6880772" lon="10.4332691"><ele>1.0</ele><time>2026-03-25T13:39:32.904Z</time></trkpt><trkpt lat="43.6879335" lon="10.4331774"><ele>1.0</ele><time>2026-03-25T13:39:33.905Z</time></trkpt><trkpt lat="43.6877946" lon="10.4330943"><ele>1.0</ele><time>2026-03-25T13:39:34.904Z</time></trkpt><trkpt lat="43.6876728" lon="10.4330084"><ele>1.0</ele><time>2026-03-25T13:39:35.904Z</time></trkpt><trkpt lat="43.6875685" lon="10.4329255"><ele>1.0</ele><time>2026-03-25T13:39:36.903Z</time></trkpt><trkpt lat="43.6874883" lon="10.4328406"><ele>1.0</ele><time>2026-03-25T13:39:37.904Z</time></trkpt><trkpt lat="43.687426" lon="10.4327456"><ele>1.3333333333333333</ele><time>2026-03-25T13:39:38.903Z</time></trkpt><trkpt lat="43.6873646" lon="10.4326543"><ele>1.6666666666666665</ele><time>2026-03-25T13:39:39.905Z</time></trkpt><trkpt lat="43.6872917" lon="10.4325962"><ele>2.0</ele><time>2026-03-25T13:39:40.904Z</time></trkpt><trkpt lat="43.6872177" lon="10.4325617"><ele>2.3333333333333335</ele><time>2026-03-25T13:39:41.904Z</time></trkpt><trkpt lat="43.6871362" lon="10.4325426"><ele>2.6666666666666665</ele><time>2026-03-25T13:39:42.905Z</time></trkpt><trkpt lat="43.6870543" lon="10.4325346"><ele>3.0</ele><time>2026-03-25T13:39:43.905Z</time></trkpt><trkpt lat="43.6869664" lon="10.432512"><ele>2.5</ele><time>2026-03-25T13:39:44.903Z</time></trkpt><trkpt lat="43.6868707" lon="10.4324624"><ele>2.0</ele><time>2026-03-25T13:39:45.904Z</time></trkpt><trkpt lat="43.6867657" lon="10.4323941"><ele>1.5</ele><time>2026-03-25T13:39:46.904Z</time></trkpt><trkpt lat="43.686649" lon="10.4323217"><ele>1.0</ele><time>2026-03-25T13:39:47.904Z</time></trkpt><trkpt lat="43.6865309" lon="10.432248"><ele>1.0</ele><time>2026-03-25T13:39:48.904Z</time></trkpt><trkpt lat="43.6864183" lon="10.432176"><ele>1.0</ele><time>2026-03-25T13:39:49.904Z</time></trkpt><trkpt lat="43.6863155" lon="10.4321031"><ele>1.0</ele><time>2026-03-25T13:39:50.905Z</time></trkpt><trkpt lat="43.6862181" lon="10.4320328"><ele>1.0</ele><time>2026-03-25T13:39:51.904Z</time></trkpt><trkpt lat="43.6861338" lon="10.4319688"><ele>1.0</ele><time>2026-03-25T13:39:52.904Z</time></trkpt><trkpt lat="43.6860647" lon="10.431907"><ele>0.6000000000000001</ele><time>2026-03-25T13:39:53.905Z</time></trkpt><trkpt lat="43.6860069" lon="10.4318456"><ele>0.20000000000000007</ele><time>2026-03-25T13:39:54.904Z</time></trkpt><trkpt lat="43.6859178" lon="10.4317394"><ele>-0.20000000000000007</ele><time>2026-03-25T13:39:56.905Z</time></trkpt><trkpt lat="43.6858273" lon="10.4316762"><ele>-0.6000000000000001</ele><time>2026-03-25T13:39:58.903Z</time></trkpt><trkpt lat="43.6857673" lon="10.4316428"><ele>-1.0</ele><time>2026-03-25T13:40:00.904Z</time></trkpt><trkpt lat="43.685622" lon="10.4315845"><ele>-1.0</ele><time>2026-03-25T13:40:55.904Z</time></trkpt><trkpt lat="43.6854921" lon="10.4315297"><ele>-1.0</ele><time>2026-03-25T13:40:56.903Z</time></trkpt><trkpt lat="43.6853637" lon="10.4314572"><ele>-1.0</ele><time>2026-03-25T13:40:57.903Z</time></trkpt><trkpt lat="43.6852608" lon="10.4313852"><ele>-1.0</ele><time>2026-03-25T13:40:58.904Z</time></trkpt><trkpt lat="43.6851699" lon="10.4313256"><ele>-0.25</ele><time>2026-03-25T13:40:59.904Z</time></trkpt><trkpt lat="43.6850608" lon="10.4312474"><ele>0.5</ele><time>2026-03-25T13:41:00.904Z</time></trkpt><trkpt lat="43.6849397" lon="10.431162"><ele>1.25</ele><time>2026-03-25T13:41:01.903Z</time></trkpt><trkpt lat="43.6848284" lon="10.4310865"><ele>2.0</ele><time>2026-03-25T13:41:02.905Z</time></trkpt><trkpt lat="43.6847295" lon="10.4310155"><ele>2.0</ele><time>2026-03-25T13:41:03.904Z</time></trkpt><trkpt lat="43.6846367" lon="10.4309498"><ele>2.0</ele><time>2026-03-25T13:41:04.903Z</time></trkpt><trkpt lat="43.684551" lon="10.4308809"><ele>2.0</ele><time>2026-03-25T13:41:05.903Z</time></trkpt><trkpt lat="43.6844699" lon="10.4308038"><ele>2.0</ele><time>2026-03-25T13:41:06.904Z</time></trkpt><trkpt lat="43.6843917" lon="10.430728"><ele>2.0</ele><time>2026-03-25T13:41:07.904Z</time></trkpt><trkpt lat="43.6843018" lon="10.4306671"><ele>2.0</ele><time>2026-03-25T13:41:08.904Z</time></trkpt><trkpt lat="43.6841978" lon="10.4306257"><ele>2.0</ele><time>2026-03-25T13:41:09.904Z</time></trkpt><trkpt lat="43.6840832" lon="10.430579"><ele>2.0</ele><time>2026-03-25T13:41:10.904Z</time></trkpt><trkpt lat="43.68396" lon="10.4305104"><ele>2.0</ele><time>2026-03-25T13:41:11.904Z</time></trkpt><trkpt lat="43.6838292" lon="10.4304221"><ele>2.0</ele><time>2026-03-25T13:41:12.905Z</time></trkpt><trkpt lat="43.6836867" lon="10.4303297"><ele>2.0</ele><time>2026-03-25T13:41:13.904Z</time></trkpt><trkpt lat="43.6835328" lon="10.4302357"><ele>2.0</ele><time>2026-03-25T13:41:14.903Z</time></trkpt><trkpt lat="43.6833797" lon="10.4301456"><ele>2.0</ele><time>2026-03-25T13:41:15.904Z</time></trkpt><trkpt lat="43.6832331" lon="10.4300583"><ele>2.0</ele><time>2026-03-25T13:41:16.904Z</time></trkpt><trkpt lat="43.6830823" lon="10.4299723"><ele>2.0</ele><time>2026-03-25T13:41:17.903Z</time></trkpt><trkpt lat="43.6829294" lon="10.4298824"><ele>2.0</ele><time>2026-03-25T13:41:18.904Z</time></trkpt><trkpt lat="43.6827735" lon="10.4297922"><ele>2.0</ele><time>2026-03-25T13:41:19.903Z</time></trkpt><trkpt lat="43.6826171" lon="10.4296986"><ele>2.0</ele><time>2026-03-25T13:41:20.903Z</time></trkpt><trkpt lat="43.6824583" lon="10.4296045"><ele>2.0</ele><time>2026-03-25T13:41:21.905Z</time></trkpt><trkpt lat="43.6823005" lon="10.4295089"><ele>2.0</ele><time>2026-03-25T13:41:22.904Z</time></trkpt><trkpt lat="43.6821419" lon="10.4294143"><ele>2.0</ele><time>2026-03-25T13:41:23.904Z</time></trkpt><trkpt lat="43.6819785" lon="10.4293213"><ele>2.0</ele><time>2026-03-25T13:41:24.904Z</time></trkpt><trkpt lat="43.681811" lon="10.4292307"><ele>2.0</ele><time>2026-03-25T13:41:25.903Z</time></trkpt><trkpt lat="43.6816404" lon="10.429138"><ele>2.0</ele><time>2026-03-25T13:41:26.903Z</time></trkpt><trkpt lat="43.6814659" lon="10.4290428"><ele>2.0</ele><time>2026-03-25T13:41:27.903Z</time></trkpt><trkpt lat="43.6812846" lon="10.4289465"><ele>2.0</ele><time>2026-03-25T13:41:28.904Z</time></trkpt><trkpt lat="43.6811072" lon="10.4288471"><ele>2.0</ele><time>2026-03-25T13:41:29.905Z</time></trkpt><trkpt lat="43.6809429" lon="10.4287527"><ele>2.333333333333333</ele><time>2026-03-25T13:41:30.905Z</time></trkpt><trkpt lat="43.6807905" lon="10.4286629"><ele>2.6666666666666665</ele><time>2026-03-25T13:41:31.903Z</time></trkpt><trkpt lat="43.6806441" lon="10.4285773"><ele>3.0</ele><time>2026-03-25T13:41:32.904Z</time></trkpt><trkpt lat="43.6805083" lon="10.4284997"><ele>3.0</ele><time>2026-03-25T13:41:33.904Z</time></trkpt><trkpt lat="43.6803869" lon="10.4284303"><ele>3.0</ele><time>2026-03-25T13:41:34.903Z</time></trkpt><trkpt lat="43.6802785" lon="10.428368"><ele>3.0</ele><time>2026-03-25T13:41:35.903Z</time></trkpt><trkpt lat="43.6801838" lon="10.4283083"><ele>3.0</ele><time>2026-03-25T13:41:36.904Z</time></trkpt><trkpt lat="43.6801044" lon="10.4282476"><ele>3.0</ele><time>2026-03-25T13:41:37.904Z</time></trkpt><trkpt lat="43.6800368" lon="10.4281782"><ele>2.8571428571428568</ele><time>2026-03-25T13:41:38.904Z</time></trkpt><trkpt lat="43.6799871" lon="10.4280949"><ele>2.7142857142857144</ele><time>2026-03-25T13:41:39.904Z</time></trkpt><trkpt lat="43.6799435" lon="10.4279985"><ele>2.571428571428571</ele><time>2026-03-25T13:41:40.903Z</time></trkpt><trkpt lat="43.6798944" lon="10.4279133"><ele>2.4285714285714284</ele><time>2026-03-25T13:41:41.904Z</time></trkpt><trkpt lat="43.6798378" lon="10.4278565"><ele>2.2857142857142856</ele><time>2026-03-25T13:41:42.903Z</time></trkpt><trkpt lat="43.6797763" lon="10.4278355"><ele>2.142857142857143</ele><time>2026-03-25T13:41:43.904Z</time></trkpt><trkpt lat="43.6797094" lon="10.4278413"><ele>2.0</ele><time>2026-03-25T13:41:44.904Z</time></trkpt><trkpt lat="43.6796303" lon="10.4278689"><ele>2.0</ele><time>2026-03-25T13:41:45.904Z</time></trkpt><trkpt lat="43.679541" lon="10.4279121"><ele>2.0</ele><time>2026-03-25T13:41:46.904Z</time></trkpt><trkpt lat="43.6794379" lon="10.4279603"><ele>2.0</ele><time>2026-03-25T13:41:47.903Z</time></trkpt><trkpt lat="43.6793223" lon="10.428006"><ele>2.0</ele><time>2026-03-25T13:41:48.905Z</time></trkpt><trkpt lat="43.6791957" lon="10.4280572"><ele>2.25</ele><time>2026-03-25T13:41:49.904Z</time></trkpt><trkpt lat="43.6790611" lon="10.4281079"><ele>2.5</ele><time>2026-03-25T13:41:50.905Z</time></trkpt><trkpt lat="43.6789233" lon="10.4281658"><ele>2.75</ele><time>2026-03-25T13:41:51.904Z</time></trkpt><trkpt lat="43.6787809" lon="10.4282371"><ele>3.0</ele><time>2026-03-25T13:41:52.903Z</time></trkpt><trkpt lat="43.6786407" lon="10.4283224"><ele>2.3333333333333335</ele><time>2026-03-25T13:41:53.905Z</time></trkpt><trkpt lat="43.6785067" lon="10.4284153"><ele>1.6666666666666665</ele><time>2026-03-25T13:41:54.903Z</time></trkpt><trkpt lat="43.6783716" lon="10.4285081"><ele>1.0</ele><time>2026-03-25T13:41:55.905Z</time></trkpt><trkpt lat="43.6782326" lon="10.4286036"><ele>1.0</ele><time>2026-03-25T13:41:56.904Z</time></trkpt><trkpt lat="43.6780929" lon="10.4286999"><ele>1.0</ele><time>2026-03-25T13:41:57.903Z</time></trkpt><trkpt lat="43.6779485" lon="10.4287974"><ele>1.0</ele><time>2026-03-25T13:41:58.904Z</time></trkpt><trkpt lat="43.6778027" lon="10.4288943"><ele>1.0</ele><time>2026-03-25T13:41:59.903Z</time></trkpt><trkpt lat="43.6776599" lon="10.4289936"><ele>1.0</ele><time>2026-03-25T13:42:00.904Z</time></trkpt><trkpt lat="43.677519" lon="10.4290963"><ele>1.0</ele><time>2026-03-25T13:42:01.904Z</time></trkpt><trkpt lat="43.6773767" lon="10.4292014"><ele>1.0</ele><time>2026-03-25T13:42:02.904Z</time></trkpt><trkpt lat="43.6772341" lon="10.4293107"><ele>1.0</ele><time>2026-03-25T13:42:03.904Z</time></trkpt><trkpt lat="43.677091" lon="10.4294198"><ele>1.0</ele><time>2026-03-25T13:42:04.905Z</time></trkpt><trkpt lat="43.6769474" lon="10.4295309"><ele>1.0</ele><time>2026-03-25T13:42:05.904Z</time></trkpt><trkpt lat="43.6768036" lon="10.4296386"><ele>1.0</ele><time>2026-03-25T13:42:06.903Z</time></trkpt><trkpt lat="43.6766664" lon="10.4297403"><ele>1.0</ele><time>2026-03-25T13:42:07.903Z</time></trkpt><trkpt lat="43.676536" lon="10.4298376"><ele>1.0</ele><time>2026-03-25T13:42:08.905Z</time></trkpt><trkpt lat="43.6764095" lon="10.4299253"><ele>1.0</ele><time>2026-03-25T13:42:09.904Z</time></trkpt><trkpt lat="43.6762889" lon="10.430007"><ele>1.0</ele><time>2026-03-25T13:42:10.903Z</time></trkpt><trkpt lat="43.676177" lon="10.4300831"><ele>1.0</ele><time>2026-03-25T13:42:11.904Z</time></trkpt><trkpt lat="43.6760727" lon="10.4301577"><ele>1.2000000000000002</ele><time>2026-03-25T13:42:12.904Z</time></trkpt><trkpt lat="43.6759728" lon="10.4302266"><ele>1.4000000000000001</ele><time>2026-03-25T13:42:13.904Z</time></trkpt><trkpt lat="43.6758706" lon="10.4302916"><ele>1.6</ele><time>2026-03-25T13:42:14.904Z</time></trkpt><trkpt lat="43.6757731" lon="10.4303545"><ele>1.8</ele><time>2026-03-25T13:42:15.904Z</time></trkpt><trkpt lat="43.6756766" lon="10.4304151"><ele>2.0</ele><time>2026-03-25T13:42:16.904Z</time></trkpt><trkpt lat="43.6755801" lon="10.430476"><ele>1.9999999999999998</ele><time>2026-03-25T13:42:17.903Z</time></trkpt><trkpt lat="43.6754894" lon="10.4305385"><ele>2.0</ele><time>2026-03-25T13:42:18.904Z</time></trkpt><trkpt lat="43.6754048" lon="10.4306048"><ele>2.0</ele><time>2026-03-25T13:42:19.905Z</time></trkpt><trkpt lat="43.6753322" lon="10.4306625"><ele>2.0</ele><time>2026-03-25T13:42:20.904Z</time></trkpt><trkpt lat="43.6752604" lon="10.4307148"><ele>1.9999999999999998</ele><time>2026-03-25T13:42:21.904Z</time></trkpt><trkpt lat="43.6751895" lon="10.4307692"><ele>2.0</ele><time>2026-03-25T13:42:22.904Z</time></trkpt><trkpt lat="43.675105" lon="10.4308246"><ele>1.75</ele><time>2026-03-25T13:42:23.903Z</time></trkpt><trkpt lat="43.6750105" lon="10.4308873"><ele>1.5</ele><time>2026-03-25T13:42:24.903Z</time></trkpt><trkpt lat="43.6749015" lon="10.4309552"><ele>1.25</ele><time>2026-03-25T13:42:25.904Z</time></trkpt><trkpt lat="43.6747747" lon="10.4310315"><ele>1.0</ele><time>2026-03-25T13:42:26.903Z</time></trkpt><trkpt lat="43.6746336" lon="10.4311183"><ele>1.0</ele><time>2026-03-25T13:42:27.903Z</time></trkpt><trkpt lat="43.6744878" lon="10.4312166"><ele>1.0</ele><time>2026-03-25T13:42:28.904Z</time></trkpt><trkpt lat="43.6743296" lon="10.431318"><ele>1.0</ele><time>2026-03-25T13:42:29.904Z</time></trkpt><trkpt lat="43.6741738" lon="10.4314147"><ele>0.6666666666666666</ele><time>2026-03-25T13:42:30.904Z</time></trkpt><trkpt lat="43.6740123" lon="10.4315174"><ele>0.3333333333333333</ele><time>2026-03-25T13:42:31.904Z</time></trkpt><trkpt lat="43.673837" lon="10.4316314"><ele>0.0</ele><time>2026-03-25T13:42:32.903Z</time></trkpt><trkpt lat="43.6736525" lon="10.431756"><ele>0.0</ele><time>2026-03-25T13:42:33.903Z</time></trkpt><trkpt lat="43.6734592" lon="10.4318783"><ele>0.0</ele><time>2026-03-25T13:42:34.904Z</time></trkpt><trkpt lat="43.6732675" lon="10.4319965"><ele>0.0</ele><time>2026-03-25T13:42:35.904Z</time></trkpt><trkpt lat="43.6730798" lon="10.4321119"><ele>0.0</ele><time>2026-03-25T13:42:36.904Z</time></trkpt><trkpt lat="43.6728935" lon="10.4322249"><ele>0.0</ele><time>2026-03-25T13:42:37.904Z</time></trkpt><trkpt lat="43.6727026" lon="10.432338"><ele>0.0</ele><time>2026-03-25T13:42:38.904Z</time></trkpt><trkpt lat="43.6725073" lon="10.4324431"><ele>0.0</ele><time>2026-03-25T13:42:39.905Z</time></trkpt><trkpt lat="43.6723065" lon="10.4325447"><ele>0.0</ele><time>2026-03-25T13:42:40.904Z</time></trkpt><trkpt lat="43.6721044" lon="10.432644"><ele>0.0</ele><time>2026-03-25T13:42:41.904Z</time></trkpt><trkpt lat="43.6718951" lon="10.4327371"><ele>0.0</ele><time>2026-03-25T13:42:42.904Z</time></trkpt><trkpt lat="43.6716867" lon="10.4328173"><ele>0.0</ele><time>2026-03-25T13:42:43.903Z</time></trkpt><trkpt lat="43.6714739" lon="10.4328953"><ele>0.0</ele><time>2026-03-25T13:42:44.903Z</time></trkpt><trkpt lat="43.6712686" lon="10.4329564"><ele>0.0</ele><time>2026-03-25T13:42:45.904Z</time></trkpt><trkpt lat="43.6710713" lon="10.4330109"><ele>0.0</ele><time>2026-03-25T13:42:46.903Z</time></trkpt><trkpt lat="43.6708783" lon="10.4330627"><ele>0.0</ele><time>2026-03-25T13:42:47.904Z</time></trkpt><trkpt lat="43.6706886" lon="10.4331087"><ele>0.0</ele><time>2026-03-25T13:42:48.905Z</time></trkpt><trkpt lat="43.6705049" lon="10.4331594"><ele>0.0</ele><time>2026-03-25T13:42:49.904Z</time></trkpt><trkpt lat="43.6703244" lon="10.4332147"><ele>0.0</ele><time>2026-03-25T13:42:50.903Z</time></trkpt><trkpt lat="43.6701546" lon="10.4332681"><ele>0.0</ele><time>2026-03-25T13:42:51.904Z</time></trkpt><trkpt lat="43.6699811" lon="10.4333253"><ele>0.0</ele><time>2026-03-25T13:42:52.904Z</time></trkpt><trkpt lat="43.6698092" lon="10.4333915"><ele>0.0</ele><time>2026-03-25T13:42:53.904Z</time></trkpt><trkpt lat="43.6696416" lon="10.433464"><ele>0.0</ele><time>2026-03-25T13:42:54.904Z</time></trkpt><trkpt lat="43.6694798" lon="10.4335297"><ele>0.0</ele><time>2026-03-25T13:42:55.904Z</time></trkpt><trkpt lat="43.6693252" lon="10.4335925"><ele>0.0</ele><time>2026-03-25T13:42:56.904Z</time></trkpt><trkpt lat="43.6691805" lon="10.4336544"><ele>0.0</ele><time>2026-03-25T13:42:57.903Z</time></trkpt><trkpt lat="43.6690565" lon="10.433719"><ele>0.0</ele><time>2026-03-25T13:42:58.905Z</time></trkpt><trkpt lat="43.6689423" lon="10.4337763"><ele>0.0</ele><time>2026-03-25T13:42:59.903Z</time></trkpt><trkpt lat="43.668833" lon="10.4338311"><ele>0.0</ele><time>2026-03-25T13:43:00.904Z</time></trkpt><trkpt lat="43.6687256" lon="10.4338743"><ele>0.25</ele><time>2026-03-25T13:43:01.904Z</time></trkpt><trkpt lat="43.6686141" lon="10.4339244"><ele>0.5</ele><time>2026-03-25T13:43:02.905Z</time></trkpt><trkpt lat="43.6684937" lon="10.4339866"><ele>0.75</ele><time>2026-03-25T13:43:03.904Z</time></trkpt><trkpt lat="43.6683658" lon="10.4340384"><ele>1.0</ele><time>2026-03-25T13:43:04.903Z</time></trkpt><trkpt lat="43.6682351" lon="10.4340776"><ele>1.0</ele><time>2026-03-25T13:43:05.903Z</time></trkpt><trkpt lat="43.6681015" lon="10.4341252"><ele>1.0</ele><time>2026-03-25T13:43:06.904Z</time></trkpt><trkpt lat="43.6679535" lon="10.4341886"><ele>1.0</ele><time>2026-03-25T13:43:07.904Z</time></trkpt><trkpt lat="43.6677897" lon="10.4342663"><ele>1.6666666666666665</ele><time>2026-03-25T13:43:08.904Z</time></trkpt><trkpt lat="43.6676175" lon="10.4343529"><ele>2.3333333333333335</ele><time>2026-03-25T13:43:09.903Z</time></trkpt><trkpt lat="43.6674288" lon="10.4344559"><ele>3.0</ele><time>2026-03-25T13:43:10.905Z</time></trkpt><trkpt lat="43.6672428" lon="10.4345649"><ele>2.3333333333333335</ele><time>2026-03-25T13:43:11.905Z</time></trkpt><trkpt lat="43.6670654" lon="10.4346778"><ele>1.6666666666666665</ele><time>2026-03-25T13:43:12.903Z</time></trkpt><trkpt lat="43.6668894" lon="10.4347919"><ele>1.0</ele><time>2026-03-25T13:43:13.904Z</time></trkpt><trkpt lat="43.6667186" lon="10.4349035"><ele>1.0</ele><time>2026-03-25T13:43:14.903Z</time></trkpt><trkpt lat="43.6665491" lon="10.4350095"><ele>1.0</ele><time>2026-03-25T13:43:15.903Z</time></trkpt><trkpt lat="43.6663854" lon="10.4351114"><ele>1.0</ele><time>2026-03-25T13:43:16.905Z</time></trkpt><trkpt lat="43.6662257" lon="10.4352095"><ele>1.0</ele><time>2026-03-25T13:43:17.904Z</time></trkpt><trkpt lat="43.6660705" lon="10.4353058"><ele>1.0</ele><time>2026-03-25T13:43:18.904Z</time></trkpt><trkpt lat="43.6659138" lon="10.4354077"><ele>1.0</ele><time>2026-03-25T13:43:19.904Z</time></trkpt><trkpt lat="43.6657696" lon="10.4354928"><ele>1.0</ele><time>2026-03-25T13:43:20.904Z</time></trkpt><trkpt lat="43.6656138" lon="10.4355867"><ele>1.0</ele><time>2026-03-25T13:43:21.903Z</time></trkpt><trkpt lat="43.6654631" lon="10.4356901"><ele>1.0</ele><time>2026-03-25T13:43:22.904Z</time></trkpt><trkpt lat="43.6653012" lon="10.4357876"><ele>0.6666666666666666</ele><time>2026-03-25T13:43:23.904Z</time></trkpt><trkpt lat="43.6651271" lon="10.4358976"><ele>0.3333333333333333</ele><time>2026-03-25T13:43:24.905Z</time></trkpt><trkpt lat="43.6649467" lon="10.4360126"><ele>0.0</ele><time>2026-03-25T13:43:25.904Z</time></trkpt><trkpt lat="43.6647581" lon="10.4361305"><ele>0.0</ele><time>2026-03-25T13:43:26.904Z</time></trkpt><trkpt lat="43.6645666" lon="10.436254"><ele>0.0</ele><time>2026-03-25T13:43:27.904Z</time></trkpt><trkpt lat="43.6643785" lon="10.4363733"><ele>0.0</ele><time>2026-03-25T13:43:28.903Z</time></trkpt><trkpt lat="43.6641943" lon="10.4364871"><ele>0.0</ele><time>2026-03-25T13:43:29.904Z</time></trkpt><trkpt lat="43.6640153" lon="10.4366033"><ele>0.0</ele><time>2026-03-25T13:43:30.905Z</time></trkpt><trkpt lat="43.663837" lon="10.4367179"><ele>0.0</ele><time>2026-03-25T13:43:31.904Z</time></trkpt><trkpt lat="43.6636639" lon="10.4368284"><ele>0.0</ele><time>2026-03-25T13:43:32.904Z</time></trkpt><trkpt lat="43.6634916" lon="10.4369338"><ele>0.0</ele><time>2026-03-25T13:43:33.903Z</time></trkpt><trkpt lat="43.6633221" lon="10.4370344"><ele>0.0</ele><time>2026-03-25T13:43:34.903Z</time></trkpt><trkpt lat="43.6631547" lon="10.4371428"><ele>0.0</ele><time>2026-03-25T13:43:35.904Z</time></trkpt><trkpt lat="43.6629905" lon="10.4372487"><ele>0.0</ele><time>2026-03-25T13:43:36.903Z</time></trkpt><trkpt lat="43.6628297" lon="10.4373532"><ele>0.0</ele><time>2026-03-25T13:43:37.904Z</time></trkpt><trkpt lat="43.662675" lon="10.4374528"><ele>0.0</ele><time>2026-03-25T13:43:38.904Z</time></trkpt><trkpt lat="43.662527" lon="10.4375523"><ele>0.0</ele><time>2026-03-25T13:43:39.904Z</time></trkpt><trkpt lat="43.6623825" lon="10.4376427"><ele>0.0</ele><time>2026-03-25T13:43:40.904Z</time></trkpt><trkpt lat="43.6622421" lon="10.4377338"><ele>0.0</ele><time>2026-03-25T13:43:41.903Z</time></trkpt><trkpt lat="43.6621085" lon="10.4378168"><ele>0.0</ele><time>2026-03-25T13:43:42.904Z</time></trkpt><trkpt lat="43.6619791" lon="10.4378938"><ele>0.0</ele><time>2026-03-25T13:43:43.903Z</time></trkpt><trkpt lat="43.6618527" lon="10.4379684"><ele>0.0</ele><time>2026-03-25T13:43:44.905Z</time></trkpt><trkpt lat="43.6617301" lon="10.4380448"><ele>0.0</ele><time>2026-03-25T13:43:45.904Z</time></trkpt><trkpt lat="43.6616141" lon="10.438121"><ele>0.0</ele><time>2026-03-25T13:43:46.904Z</time></trkpt><trkpt lat="43.661506" lon="10.4381891"><ele>0.0</ele><time>2026-03-25T13:43:47.904Z</time></trkpt><trkpt lat="43.6614124" lon="10.4382515"><ele>0.0</ele><time>2026-03-25T13:43:48.904Z</time></trkpt><trkpt lat="43.6613333" lon="10.4383039"><ele>0.0</ele><time>2026-03-25T13:43:49.904Z</time></trkpt><trkpt lat="43.6612715" lon="10.4383418"><ele>0.0</ele><time>2026-03-25T13:43:50.903Z</time></trkpt><trkpt lat="43.6611785" lon="10.4384032"><ele>0.0</ele><time>2026-03-25T13:43:52.903Z</time></trkpt><trkpt lat="43.6611161" lon="10.4384479"><ele>0.0</ele><time>2026-03-25T13:43:54.904Z</time></trkpt><trkpt lat="43.6610585" lon="10.4384887"><ele>0.0</ele><time>2026-03-25T13:43:58.903Z</time></trkpt><trkpt lat="43.6609905" lon="10.4385525"><ele>0.0</ele><time>2026-03-25T13:44:22.905Z</time></trkpt><trkpt lat="43.6609066" lon="10.4385969"><ele>0.0</ele><time>2026-03-25T13:44:25.903Z</time></trkpt><trkpt lat="43.6608247" lon="10.4386395"><ele>0.0</ele><time>2026-03-25T13:44:42.903Z</time></trkpt><trkpt lat="43.6606904" lon="10.4387192"><ele>0.0</ele><time>2026-03-25T13:44:44.904Z</time></trkpt><trkpt lat="43.6605871" lon="10.4387791"><ele>0.0</ele><time>2026-03-25T13:44:45.904Z</time></trkpt><trkpt lat="43.6604851" lon="10.4388424"><ele>0.0</ele><time>2026-03-25T13:44:46.905Z</time></trkpt><trkpt lat="43.6603704" lon="10.4389118"><ele>0.25</ele><time>2026-03-25T13:44:47.903Z</time></trkpt><trkpt lat="43.6602422" lon="10.4389859"><ele>0.5</ele><time>2026-03-25T13:44:48.904Z</time></trkpt><trkpt lat="43.6601046" lon="10.4390716"><ele>0.75</ele><time>2026-03-25T13:44:49.905Z</time></trkpt><trkpt lat="43.6599602" lon="10.4391635"><ele>1.0</ele><time>2026-03-25T13:44:50.903Z</time></trkpt><trkpt lat="43.659806" lon="10.4392617"><ele>1.0</ele><time>2026-03-25T13:44:51.904Z</time></trkpt><trkpt lat="43.6596547" lon="10.4393633"><ele>1.0</ele><time>2026-03-25T13:44:52.905Z</time></trkpt><trkpt lat="43.6595043" lon="10.4394604"><ele>1.0</ele><time>2026-03-25T13:44:53.905Z</time></trkpt><trkpt lat="43.6593492" lon="10.4395607"><ele>0.0</ele><time>2026-03-25T13:44:54.904Z</time></trkpt><trkpt lat="43.6591929" lon="10.4396671"><ele>-1.0</ele><time>2026-03-25T13:44:55.904Z</time></trkpt><trkpt lat="43.6590303" lon="10.4397748"><ele>-2.0</ele><time>2026-03-25T13:44:56.904Z</time></trkpt><trkpt lat="43.6588572" lon="10.4398816"><ele>-2.0</ele><time>2026-03-25T13:44:57.904Z</time></trkpt><trkpt lat="43.6586819" lon="10.4399895"><ele>-2.0</ele><time>2026-03-25T13:44:58.905Z</time></trkpt><trkpt lat="43.6585123" lon="10.4400956"><ele>-2.0</ele><time>2026-03-25T13:44:59.904Z</time></trkpt><trkpt lat="43.6583452" lon="10.4401971"><ele>-1.3333333333333333</ele><time>2026-03-25T13:45:00.904Z</time></trkpt><trkpt lat="43.6581787" lon="10.4403"><ele>-0.6666666666666666</ele><time>2026-03-25T13:45:01.903Z</time></trkpt><trkpt lat="43.6580111" lon="10.4404088"><ele>0.0</ele><time>2026-03-25T13:45:02.903Z</time></trkpt><trkpt lat="43.6578267" lon="10.4405272"><ele>0.3333333333333333</ele><time>2026-03-25T13:45:03.904Z</time></trkpt><trkpt lat="43.6576389" lon="10.4406464"><ele>0.6666666666666666</ele><time>2026-03-25T13:45:04.904Z</time></trkpt><trkpt lat="43.6574445" lon="10.440767"><ele>1.0</ele><time>2026-03-25T13:45:05.904Z</time></trkpt><trkpt lat="43.6572532" lon="10.4408869"><ele>1.0</ele><time>2026-03-25T13:45:06.904Z</time></trkpt><trkpt lat="43.6570632" lon="10.4410106"><ele>1.0</ele><time>2026-03-25T13:45:07.904Z</time></trkpt><trkpt lat="43.6568701" lon="10.4411358"><ele>1.0</ele><time>2026-03-25T13:45:08.904Z</time></trkpt><trkpt lat="43.6566794" lon="10.4412566"><ele>1.0</ele><time>2026-03-25T13:45:09.904Z</time></trkpt><trkpt lat="43.6564883" lon="10.4413777"><ele>1.0</ele><time>2026-03-25T13:45:10.903Z</time></trkpt><trkpt lat="43.6563022" lon="10.4415027"><ele>1.0</ele><time>2026-03-25T13:45:11.905Z</time></trkpt><trkpt lat="43.6561122" lon="10.4416237"><ele>1.0</ele><time>2026-03-25T13:45:12.904Z</time></trkpt><trkpt lat="43.6559236" lon="10.4417451"><ele>1.0</ele><time>2026-03-25T13:45:13.904Z</time></trkpt><trkpt lat="43.6557371" lon="10.4418684"><ele>1.0</ele><time>2026-03-25T13:45:14.904Z</time></trkpt><trkpt lat="43.6555506" lon="10.4419891"><ele>1.0</ele><time>2026-03-25T13:45:15.903Z</time></trkpt><trkpt lat="43.6553614" lon="10.442107"><ele>1.0</ele><time>2026-03-25T13:45:16.904Z</time></trkpt><trkpt lat="43.6551633" lon="10.4422332"><ele>1.0</ele><time>2026-03-25T13:45:17.903Z</time></trkpt><trkpt lat="43.6549642" lon="10.4423549"><ele>0.6666666666666666</ele><time>2026-03-25T13:45:18.904Z</time></trkpt><trkpt lat="43.6547738" lon="10.4424772"><ele>0.3333333333333333</ele><time>2026-03-25T13:45:19.904Z</time></trkpt><trkpt lat="43.6545829" lon="10.4425986"><ele>0.0</ele><time>2026-03-25T13:45:20.903Z</time></trkpt><trkpt lat="43.6543894" lon="10.4427191"><ele>0.0</ele><time>2026-03-25T13:45:21.904Z</time></trkpt><trkpt lat="43.6541958" lon="10.4428391"><ele>0.0</ele><time>2026-03-25T13:45:22.904Z</time></trkpt><trkpt lat="43.6540008" lon="10.4429699"><ele>0.0</ele><time>2026-03-25T13:45:23.905Z</time></trkpt><trkpt lat="43.6538022" lon="10.4430982"><ele>-0.3333333333333333</ele><time>2026-03-25T13:45:24.904Z</time></trkpt><trkpt lat="43.6536001" lon="10.4432262"><ele>-0.6666666666666666</ele><time>2026-03-25T13:45:25.904Z</time></trkpt><trkpt lat="43.6533955" lon="10.4433536"><ele>-1.0</ele><time>2026-03-25T13:45:26.904Z</time></trkpt><trkpt lat="43.6531884" lon="10.4434823"><ele>-1.0</ele><time>2026-03-25T13:45:27.903Z</time></trkpt><trkpt lat="43.6529782" lon="10.4436117"><ele>-1.0</ele><time>2026-03-25T13:45:28.904Z</time></trkpt><trkpt lat="43.6527652" lon="10.4437483"><ele>-0.5</ele><time>2026-03-25T13:45:29.904Z</time></trkpt><trkpt lat="43.6525436" lon="10.4438895"><ele>0.0</ele><time>2026-03-25T13:45:30.904Z</time></trkpt><trkpt lat="43.6523149" lon="10.4440317"><ele>0.0</ele><time>2026-03-25T13:45:31.903Z</time></trkpt><trkpt lat="43.6520854" lon="10.4441767"><ele>0.0</ele><time>2026-03-25T13:45:32.904Z</time></trkpt><trkpt lat="43.6518574" lon="10.4443277"><ele>-0.5</ele><time>2026-03-25T13:45:33.904Z</time></trkpt><trkpt lat="43.6516297" lon="10.4444782"><ele>-1.0</ele><time>2026-03-25T13:45:34.904Z</time></trkpt><trkpt lat="43.6514098" lon="10.4446221"><ele>-1.0</ele><time>2026-03-25T13:45:35.904Z</time></trkpt><trkpt lat="43.6511895" lon="10.4447606"><ele>-1.0</ele><time>2026-03-25T13:45:36.903Z</time></trkpt><trkpt lat="43.6509697" lon="10.4448965"><ele>0.0</ele><time>2026-03-25T13:45:37.903Z</time></trkpt><trkpt lat="43.6507513" lon="10.4450366"><ele>1.0</ele><time>2026-03-25T13:45:38.904Z</time></trkpt><trkpt lat="43.6505357" lon="10.4451736"><ele>1.0</ele><time>2026-03-25T13:45:39.904Z</time></trkpt><trkpt lat="43.6503237" lon="10.4453088"><ele>1.0</ele><time>2026-03-25T13:45:40.904Z</time></trkpt><trkpt lat="43.6501157" lon="10.4454389"><ele>0.0</ele><time>2026-03-25T13:45:41.903Z</time></trkpt><trkpt lat="43.6499092" lon="10.4455676"><ele>-1.0</ele><time>2026-03-25T13:45:42.904Z</time></trkpt><trkpt lat="43.6497023" lon="10.4456964"><ele>-1.0</ele><time>2026-03-25T13:45:43.903Z</time></trkpt><trkpt lat="43.6494963" lon="10.4458253"><ele>-1.0</ele><time>2026-03-25T13:45:44.905Z</time></trkpt><trkpt lat="43.6492899" lon="10.4459527"><ele>-1.0</ele><time>2026-03-25T13:45:45.905Z</time></trkpt><trkpt lat="43.6490867" lon="10.4460777"><ele>-1.0</ele><time>2026-03-25T13:45:46.903Z</time></trkpt><trkpt lat="43.6488862" lon="10.4462017"><ele>-1.0</ele><time>2026-03-25T13:45:47.904Z</time></trkpt><trkpt lat="43.6486821" lon="10.4463279"><ele>-0.5</ele><time>2026-03-25T13:45:48.904Z</time></trkpt><trkpt lat="43.6484771" lon="10.446455"><ele>0.0</ele><time>2026-03-25T13:45:49.903Z</time></trkpt><trkpt lat="43.6482713" lon="10.4465868"><ele>0.0</ele><time>2026-03-25T13:45:50.903Z</time></trkpt><trkpt lat="43.6480644" lon="10.4467161"><ele>0.0</ele><time>2026-03-25T13:45:51.903Z</time></trkpt><trkpt lat="43.6478574" lon="10.4468438"><ele>0.0</ele><time>2026-03-25T13:45:52.904Z</time></trkpt><trkpt lat="43.6476538" lon="10.4469738"><ele>0.0</ele><time>2026-03-25T13:45:53.904Z</time></trkpt><trkpt lat="43.6474515" lon="10.447105"><ele>0.0</ele><time>2026-03-25T13:45:54.904Z</time></trkpt><trkpt lat="43.6472535" lon="10.4472324"><ele>-0.3333333333333333</ele><time>2026-03-25T13:45:55.904Z</time></trkpt><trkpt lat="43.6470547" lon="10.4473571"><ele>-0.6666666666666666</ele><time>2026-03-25T13:45:56.903Z</time></trkpt><trkpt lat="43.6468567" lon="10.4474756"><ele>-1.0</ele><time>2026-03-25T13:45:57.904Z</time></trkpt><trkpt lat="43.6466634" lon="10.4475966"><ele>-1.0</ele><time>2026-03-25T13:45:58.904Z</time></trkpt><trkpt lat="43.6464741" lon="10.4477191"><ele>-1.0</ele><time>2026-03-25T13:45:59.903Z</time></trkpt><trkpt lat="43.646297" lon="10.4478413"><ele>-1.0</ele><time>2026-03-25T13:46:00.905Z</time></trkpt><trkpt lat="43.6461244" lon="10.4479521"><ele>-0.3333333333333333</ele><time>2026-03-25T13:46:01.903Z</time></trkpt><trkpt lat="43.6459594" lon="10.4480565"><ele>0.3333333333333333</ele><time>2026-03-25T13:46:02.904Z</time></trkpt><trkpt lat="43.6458082" lon="10.4481487"><ele>1.0</ele><time>2026-03-25T13:46:03.904Z</time></trkpt><trkpt lat="43.6456672" lon="10.4482337"><ele>1.0</ele><time>2026-03-25T13:46:04.903Z</time></trkpt><trkpt lat="43.6455402" lon="10.4483149"><ele>1.0</ele><time>2026-03-25T13:46:05.904Z</time></trkpt><trkpt lat="43.6454218" lon="10.4483903"><ele>1.0</ele><time>2026-03-25T13:46:06.904Z</time></trkpt><trkpt lat="43.6453112" lon="10.4484542"><ele>1.0</ele><time>2026-03-25T13:46:07.904Z</time></trkpt><trkpt lat="43.6452127" lon="10.4485136"><ele>1.1666666666666665</ele><time>2026-03-25T13:46:08.903Z</time></trkpt><trkpt lat="43.6451278" lon="10.4485668"><ele>1.3333333333333333</ele><time>2026-03-25T13:46:09.903Z</time></trkpt><trkpt lat="43.6450543" lon="10.448613"><ele>1.5</ele><time>2026-03-25T13:46:10.903Z</time></trkpt><trkpt lat="43.6449949" lon="10.4486529"><ele>1.6666666666666665</ele><time>2026-03-25T13:46:11.904Z</time></trkpt><trkpt lat="43.6449124" lon="10.4487146"><ele>1.8333333333333333</ele><time>2026-03-25T13:46:13.905Z</time></trkpt><trkpt lat="43.644837" lon="10.448768"><ele>2.0</ele><time>2026-03-25T13:46:16.905Z</time></trkpt><trkpt lat="43.6447709" lon="10.4488183"><ele>1.9999999999999998</ele><time>2026-03-25T13:46:18.905Z</time></trkpt><trkpt lat="43.6446837" lon="10.4488803"><ele>2.0</ele><time>2026-03-25T13:46:20.904Z</time></trkpt><trkpt lat="43.6446156" lon="10.4489226"><ele>2.0</ele><time>2026-03-25T13:46:22.903Z</time></trkpt><trkpt lat="43.644553" lon="10.4489616"><ele>2.0</ele><time>2026-03-25T13:46:26.904Z</time></trkpt><trkpt lat="43.644497" lon="10.4490075"><ele>1.9999999999999998</ele><time>2026-03-25T13:46:30.905Z</time></trkpt><trkpt lat="43.6444201" lon="10.4490461"><ele>2.0</ele><time>2026-03-25T13:46:32.904Z</time></trkpt><trkpt lat="43.6443038" lon="10.4490935"><ele>2.142857142857143</ele><time>2026-03-25T13:46:34.904Z</time></trkpt><trkpt lat="43.6442358" lon="10.4491186"><ele>2.2857142857142856</ele><time>2026-03-25T13:46:35.904Z</time></trkpt><trkpt lat="43.6441666" lon="10.44915"><ele>2.4285714285714284</ele><time>2026-03-25T13:46:36.904Z</time></trkpt><trkpt lat="43.6441059" lon="10.4491874"><ele>2.571428571428571</ele><time>2026-03-25T13:46:37.903Z</time></trkpt><trkpt lat="43.6440505" lon="10.4492332"><ele>2.7142857142857144</ele><time>2026-03-25T13:46:38.904Z</time></trkpt><trkpt lat="43.6439963" lon="10.4492859"><ele>2.8571428571428568</ele><time>2026-03-25T13:46:39.905Z</time></trkpt><trkpt lat="43.6439372" lon="10.4493359"><ele>3.0</ele><time>2026-03-25T13:46:40.903Z</time></trkpt><trkpt lat="43.6438742" lon="10.4493815"><ele>3.0</ele><time>2026-03-25T13:46:41.904Z</time></trkpt><trkpt lat="43.6438058" lon="10.4494229"><ele>3.0</ele><time>2026-03-25T13:46:42.903Z</time></trkpt><trkpt lat="43.6437305" lon="10.4494688"><ele>3.0</ele><time>2026-03-25T13:46:43.903Z</time></trkpt><trkpt lat="43.6436453" lon="10.44952"><ele>3.0</ele><time>2026-03-25T13:46:44.904Z</time></trkpt><trkpt lat="43.6435532" lon="10.4495804"><ele>3.0</ele><time>2026-03-25T13:46:45.903Z</time></trkpt><trkpt lat="43.6434502" lon="10.4496463"><ele>2.75</ele><time>2026-03-25T13:46:46.905Z</time></trkpt><trkpt lat="43.6433448" lon="10.449711"><ele>2.5</ele><time>2026-03-25T13:46:47.903Z</time></trkpt><trkpt lat="43.6432459" lon="10.4497764"><ele>2.25</ele><time>2026-03-25T13:46:48.904Z</time></trkpt><trkpt lat="43.6431431" lon="10.4498407"><ele>2.0</ele><time>2026-03-25T13:46:49.903Z</time></trkpt><trkpt lat="43.6430358" lon="10.449908"><ele>2.0</ele><time>2026-03-25T13:46:50.903Z</time></trkpt><trkpt lat="43.6429249" lon="10.4499779"><ele>2.0</ele><time>2026-03-25T13:46:51.904Z</time></trkpt><trkpt lat="43.6428024" lon="10.4500553"><ele>2.0</ele><time>2026-03-25T13:46:52.904Z</time></trkpt><trkpt lat="43.6426759" lon="10.4501367"><ele>2.0</ele><time>2026-03-25T13:46:53.904Z</time></trkpt><trkpt lat="43.6425458" lon="10.4502216"><ele>1.75</ele><time>2026-03-25T13:46:54.904Z</time></trkpt><trkpt lat="43.6424146" lon="10.4503053"><ele>1.5</ele><time>2026-03-25T13:46:55.904Z</time></trkpt><trkpt lat="43.6422834" lon="10.4503903"><ele>1.25</ele><time>2026-03-25T13:46:56.903Z</time></trkpt><trkpt lat="43.6421504" lon="10.4504731"><ele>1.0</ele><time>2026-03-25T13:46:57.904Z</time></trkpt><trkpt lat="43.6420115" lon="10.4505617"><ele>0.6666666666666666</ele><time>2026-03-25T13:46:58.904Z</time></trkpt><trkpt lat="43.6418714" lon="10.4506477"><ele>0.3333333333333333</ele><time>2026-03-25T13:46:59.904Z</time></trkpt><trkpt lat="43.641723" lon="10.4507393"><ele>0.0</ele><time>2026-03-25T13:47:00.905Z</time></trkpt><trkpt lat="43.6415726" lon="10.4508343"><ele>0.0</ele><time>2026-03-25T13:47:01.904Z</time></trkpt><trkpt lat="43.6414231" lon="10.450929"><ele>0.0</ele><time>2026-03-25T13:47:02.904Z</time></trkpt><trkpt lat="43.641271" lon="10.4510262"><ele>0.0</ele><time>2026-03-25T13:47:03.904Z</time></trkpt><trkpt lat="43.6411204" lon="10.4511227"><ele>0.0</ele><time>2026-03-25T13:47:04.905Z</time></trkpt><trkpt lat="43.6409732" lon="10.451214"><ele>0.0</ele><time>2026-03-25T13:47:05.904Z</time></trkpt><trkpt lat="43.640827" lon="10.4513087"><ele>0.0</ele><time>2026-03-25T13:47:06.904Z</time></trkpt><trkpt lat="43.6406774" lon="10.4514099"><ele>0.0</ele><time>2026-03-25T13:47:07.904Z</time></trkpt><trkpt lat="43.6405201" lon="10.4515086"><ele>0.0</ele><time>2026-03-25T13:47:08.904Z</time></trkpt><trkpt lat="43.6403609" lon="10.4516094"><ele>0.0</ele><time>2026-03-25T13:47:09.903Z</time></trkpt><trkpt lat="43.6402028" lon="10.4517063"><ele>0.0</ele><time>2026-03-25T13:47:10.904Z</time></trkpt><trkpt lat="43.6400444" lon="10.4518054"><ele>0.0</ele><time>2026-03-25T13:47:11.904Z</time></trkpt><trkpt lat="43.6398856" lon="10.4519047"><ele>0.0</ele><time>2026-03-25T13:47:12.903Z</time></trkpt><trkpt lat="43.6397304" lon="10.4520048"><ele>0.0</ele><time>2026-03-25T13:47:13.904Z</time></trkpt><trkpt lat="43.6395792" lon="10.4521023"><ele>0.0</ele><time>2026-03-25T13:47:14.904Z</time></trkpt><trkpt lat="43.6394278" lon="10.4521968"><ele>0.0</ele><time>2026-03-25T13:47:15.904Z</time></trkpt><trkpt lat="43.6392769" lon="10.4522934"><ele>0.0</ele><time>2026-03-25T13:47:16.904Z</time></trkpt><trkpt lat="43.6391196" lon="10.452391"><ele>0.0</ele><time>2026-03-25T13:47:17.903Z</time></trkpt><trkpt lat="43.6389568" lon="10.4524892"><ele>0.0</ele><time>2026-03-25T13:47:18.903Z</time></trkpt><trkpt lat="43.6387925" lon="10.4525914"><ele>0.0</ele><time>2026-03-25T13:47:19.903Z</time></trkpt><trkpt lat="43.6386371" lon="10.4526911"><ele>0.0</ele><time>2026-03-25T13:47:20.905Z</time></trkpt><trkpt lat="43.6384885" lon="10.4527882"><ele>0.0</ele><time>2026-03-25T13:47:21.903Z</time></trkpt><trkpt lat="43.6383427" lon="10.4528803"><ele>0.3333333333333333</ele><time>2026-03-25T13:47:22.904Z</time></trkpt><trkpt lat="43.6381967" lon="10.452973"><ele>0.6666666666666666</ele><time>2026-03-25T13:47:23.904Z</time></trkpt><trkpt lat="43.6380443" lon="10.4530658"><ele>1.0</ele><time>2026-03-25T13:47:24.903Z</time></trkpt><trkpt lat="43.6378946" lon="10.4531649"><ele>0.6666666666666666</ele><time>2026-03-25T13:47:25.904Z</time></trkpt><trkpt lat="43.6377403" lon="10.4532606"><ele>0.3333333333333333</ele><time>2026-03-25T13:47:26.904Z</time></trkpt><trkpt lat="43.6375863" lon="10.4533588"><ele>0.0</ele><time>2026-03-25T13:47:27.904Z</time></trkpt><trkpt lat="43.6374456" lon="10.4534436"><ele>0.0</ele><time>2026-03-25T13:47:28.904Z</time></trkpt><trkpt lat="43.6372967" lon="10.4535408"><ele>0.0</ele><time>2026-03-25T13:47:29.904Z</time></trkpt><trkpt lat="43.6371445" lon="10.4536349"><ele>0.0</ele><time>2026-03-25T13:47:30.904Z</time></trkpt><trkpt lat="43.6369885" lon="10.4537332"><ele>0.3333333333333333</ele><time>2026-03-25T13:47:31.904Z</time></trkpt><trkpt lat="43.6368387" lon="10.4538264"><ele>0.6666666666666666</ele><time>2026-03-25T13:47:32.903Z</time></trkpt><trkpt lat="43.6366909" lon="10.4539214"><ele>1.0</ele><time>2026-03-25T13:47:33.903Z</time></trkpt><trkpt lat="43.6365421" lon="10.4540216"><ele>1.0</ele><time>2026-03-25T13:47:34.903Z</time></trkpt><trkpt lat="43.6363889" lon="10.4541204"><ele>1.0</ele><time>2026-03-25T13:47:35.904Z</time></trkpt><trkpt lat="43.6362379" lon="10.4542168"><ele>1.0</ele><time>2026-03-25T13:47:36.904Z</time></trkpt><trkpt lat="43.6360936" lon="10.4543027"><ele>1.0</ele><time>2026-03-25T13:47:37.903Z</time></trkpt><trkpt lat="43.635953" lon="10.4543963"><ele>1.0</ele><time>2026-03-25T13:47:38.904Z</time></trkpt><trkpt lat="43.6358099" lon="10.4544854"><ele>1.0</ele><time>2026-03-25T13:47:39.904Z</time></trkpt><trkpt lat="43.6356641" lon="10.4545827"><ele>1.0</ele><time>2026-03-25T13:47:40.903Z</time></trkpt><trkpt lat="43.6355194" lon="10.454674"><ele>1.0</ele><time>2026-03-25T13:47:41.904Z</time></trkpt><trkpt lat="43.6353749" lon="10.4547676"><ele>1.0</ele><time>2026-03-25T13:47:42.904Z</time></trkpt><trkpt lat="43.6352325" lon="10.4548567"><ele>1.0</ele><time>2026-03-25T13:47:43.903Z</time></trkpt><trkpt lat="43.6350934" lon="10.454951"><ele>1.0</ele><time>2026-03-25T13:47:44.903Z</time></trkpt><trkpt lat="43.6349563" lon="10.4550351"><ele>1.0</ele><time>2026-03-25T13:47:45.904Z</time></trkpt><trkpt lat="43.6348176" lon="10.4551209"><ele>1.0</ele><time>2026-03-25T13:47:46.903Z</time></trkpt><trkpt lat="43.6346788" lon="10.4552064"><ele>1.0</ele><time>2026-03-25T13:47:47.905Z</time></trkpt><trkpt lat="43.6345452" lon="10.4552919"><ele>1.0</ele><time>2026-03-25T13:47:48.904Z</time></trkpt><trkpt lat="43.6344096" lon="10.4553783"><ele>1.0</ele><time>2026-03-25T13:47:49.903Z</time></trkpt><trkpt lat="43.6342734" lon="10.4554642"><ele>1.5</ele><time>2026-03-25T13:47:50.903Z</time></trkpt><trkpt lat="43.6341435" lon="10.4555401"><ele>2.0</ele><time>2026-03-25T13:47:51.904Z</time></trkpt><trkpt lat="43.634021" lon="10.455619"><ele>2.5</ele><time>2026-03-25T13:47:52.904Z</time></trkpt><trkpt lat="43.633902" lon="10.4556945"><ele>3.0</ele><time>2026-03-25T13:47:53.904Z</time></trkpt><trkpt lat="43.6337868" lon="10.4557677"><ele>3.0</ele><time>2026-03-25T13:47:54.904Z</time></trkpt><trkpt lat="43.6336594" lon="10.4558425"><ele>3.0</ele><time>2026-03-25T13:47:55.903Z</time></trkpt><trkpt lat="43.6335332" lon="10.4559214"><ele>3.0</ele><time>2026-03-25T13:47:56.903Z</time></trkpt><trkpt lat="43.6333997" lon="10.4560092"><ele>3.0</ele><time>2026-03-25T13:47:57.903Z</time></trkpt><trkpt lat="43.6332682" lon="10.4560982"><ele>2.5</ele><time>2026-03-25T13:47:58.904Z</time></trkpt><trkpt lat="43.6331424" lon="10.4561736"><ele>2.0</ele><time>2026-03-25T13:47:59.904Z</time></trkpt><trkpt lat="43.6330168" lon="10.4562614"><ele>1.5</ele><time>2026-03-25T13:48:00.905Z</time></trkpt><trkpt lat="43.6328803" lon="10.4563428"><ele>1.0</ele><time>2026-03-25T13:48:01.904Z</time></trkpt><trkpt lat="43.6327487" lon="10.4564254"><ele>1.0</ele><time>2026-03-25T13:48:02.903Z</time></trkpt><trkpt lat="43.6326163" lon="10.4565134"><ele>1.0</ele><time>2026-03-25T13:48:03.904Z</time></trkpt><trkpt lat="43.6324815" lon="10.456601"><ele>1.0</ele><time>2026-03-25T13:48:04.903Z</time></trkpt><trkpt lat="43.6323402" lon="10.4566904"><ele>1.0</ele><time>2026-03-25T13:48:05.903Z</time></trkpt><trkpt lat="43.6321992" lon="10.4567785"><ele>1.0</ele><time>2026-03-25T13:48:06.903Z</time></trkpt><trkpt lat="43.6320539" lon="10.45687"><ele>1.0</ele><time>2026-03-25T13:48:07.905Z</time></trkpt><trkpt lat="43.6319092" lon="10.4569615"><ele>1.0</ele><time>2026-03-25T13:48:08.905Z</time></trkpt><trkpt lat="43.6317697" lon="10.4570492"><ele>1.0</ele><time>2026-03-25T13:48:09.903Z</time></trkpt><trkpt lat="43.6316366" lon="10.4571341"><ele>1.0</ele><time>2026-03-25T13:48:10.905Z</time></trkpt><trkpt lat="43.6315012" lon="10.4572213"><ele>1.0</ele><time>2026-03-25T13:48:11.904Z</time></trkpt><trkpt lat="43.631362" lon="10.4573063"><ele>1.3333333333333333</ele><time>2026-03-25T13:48:12.903Z</time></trkpt><trkpt lat="43.6312197" lon="10.4573936"><ele>1.6666666666666665</ele><time>2026-03-25T13:48:13.904Z</time></trkpt><trkpt lat="43.6310743" lon="10.4574828"><ele>2.0</ele><time>2026-03-25T13:48:14.904Z</time></trkpt><trkpt lat="43.6309292" lon="10.4575733"><ele>2.0</ele><time>2026-03-25T13:48:15.905Z</time></trkpt><trkpt lat="43.6307826" lon="10.4576638"><ele>2.0</ele><time>2026-03-25T13:48:16.904Z</time></trkpt><trkpt lat="43.6306345" lon="10.4577599"><ele>2.0</ele><time>2026-03-25T13:48:17.904Z</time></trkpt><trkpt lat="43.6304873" lon="10.4578573"><ele>2.0</ele><time>2026-03-25T13:48:18.904Z</time></trkpt><trkpt lat="43.6303401" lon="10.457952"><ele>2.0</ele><time>2026-03-25T13:48:19.904Z</time></trkpt><trkpt lat="43.6301977" lon="10.4580459"><ele>2.0</ele><time>2026-03-25T13:48:20.904Z</time></trkpt><trkpt lat="43.6300576" lon="10.4581385"><ele>2.0</ele><time>2026-03-25T13:48:21.903Z</time></trkpt><trkpt lat="43.6299241" lon="10.4582264"><ele>2.0</ele><time>2026-03-25T13:48:22.905Z</time></trkpt><trkpt lat="43.6298013" lon="10.4583009"><ele>2.0</ele><time>2026-03-25T13:48:23.903Z</time></trkpt><trkpt lat="43.6297104" lon="10.4583647"><ele>2.0</ele><time>2026-03-25T13:48:24.903Z</time></trkpt><trkpt lat="43.6296526" lon="10.4584185"><ele>1.9999999999999998</ele><time>2026-03-25T13:48:25.904Z</time></trkpt><trkpt lat="43.6295934" lon="10.4585097"><ele>2.0</ele><time>2026-03-25T13:48:27.904Z</time></trkpt><trkpt lat="43.6296608" lon="10.4584827"><ele>2.0</ele><time>2026-03-25T13:48:43.903Z</time></trkpt><trkpt lat="43.6297414" lon="10.4583674"><ele>2.0</ele><time>2026-03-25T13:48:45.904Z</time></trkpt><trkpt lat="43.6298047" lon="10.4583232"><ele>1.9999999999999998</ele><time>2026-03-25T13:48:46.904Z</time></trkpt><trkpt lat="43.6298786" lon="10.4582843"><ele>2.0</ele><time>2026-03-25T13:48:47.904Z</time></trkpt><trkpt lat="43.629983" lon="10.4582155"><ele>2.0</ele><time>2026-03-25T13:48:48.904Z</time></trkpt><trkpt lat="43.630112" lon="10.4581338"><ele>2.0</ele><time>2026-03-25T13:48:49.904Z</time></trkpt><trkpt lat="43.6302494" lon="10.4580475"><ele>2.0</ele><time>2026-03-25T13:48:50.903Z</time></trkpt><trkpt lat="43.6303827" lon="10.4579598"><ele>2.0</ele><time>2026-03-25T13:48:51.904Z</time></trkpt><trkpt lat="43.6305218" lon="10.4578749"><ele>2.0</ele><time>2026-03-25T13:48:52.904Z</time></trkpt><trkpt lat="43.6306675" lon="10.4577821"><ele>2.0</ele><time>2026-03-25T13:48:53.904Z</time></trkpt><trkpt lat="43.6308261" lon="10.4576848"><ele>2.0</ele><time>2026-03-25T13:48:54.904Z</time></trkpt><trkpt lat="43.6309948" lon="10.4575831"><ele>2.0</ele><time>2026-03-25T13:48:55.905Z</time></trkpt><trkpt lat="43.6311687" lon="10.4574764"><ele>2.0</ele><time>2026-03-25T13:48:56.904Z</time></trkpt><trkpt lat="43.6313531" lon="10.4573608"><ele>2.0</ele><time>2026-03-25T13:48:57.903Z</time></trkpt><trkpt lat="43.6315396" lon="10.4572468"><ele>2.0</ele><time>2026-03-25T13:48:58.904Z</time></trkpt><trkpt lat="43.6317189" lon="10.4571351"><ele>2.0</ele><time>2026-03-25T13:48:59.904Z</time></trkpt><trkpt lat="43.6319001" lon="10.4570235"><ele>2.0</ele><time>2026-03-25T13:49:00.904Z</time></trkpt><trkpt lat="43.6320785" lon="10.4569095"><ele>1.6666666666666665</ele><time>2026-03-25T13:49:01.904Z</time></trkpt><trkpt lat="43.6322558" lon="10.4567949"><ele>1.3333333333333333</ele><time>2026-03-25T13:49:02.904Z</time></trkpt><trkpt lat="43.6324327" lon="10.4566785"><ele>1.0</ele><time>2026-03-25T13:49:03.904Z</time></trkpt><trkpt lat="43.6326083" lon="10.4565613"><ele>1.0</ele><time>2026-03-25T13:49:04.903Z</time></trkpt><trkpt lat="43.6327868" lon="10.4564427"><ele>1.0</ele><time>2026-03-25T13:49:05.905Z</time></trkpt><trkpt lat="43.6329651" lon="10.4563252"><ele>1.0</ele><time>2026-03-25T13:49:06.904Z</time></trkpt><trkpt lat="43.633143" lon="10.4562071"><ele>1.0</ele><time>2026-03-25T13:49:07.904Z</time></trkpt><trkpt lat="43.6333272" lon="10.4560862"><ele>1.0</ele><time>2026-03-25T13:49:08.903Z</time></trkpt><trkpt lat="43.6335148" lon="10.4559607"><ele>1.0</ele><time>2026-03-25T13:49:09.903Z</time></trkpt><trkpt lat="43.6337015" lon="10.4558365"><ele>1.6666666666666665</ele><time>2026-03-25T13:49:10.903Z</time></trkpt><trkpt lat="43.6338946" lon="10.4557143"><ele>2.3333333333333335</ele><time>2026-03-25T13:49:11.904Z</time></trkpt><trkpt lat="43.6340972" lon="10.4555886"><ele>3.0</ele><time>2026-03-25T13:49:12.904Z</time></trkpt><trkpt lat="43.6343062" lon="10.4554589"><ele>2.0</ele><time>2026-03-25T13:49:13.903Z</time></trkpt><trkpt lat="43.6345204" lon="10.455323"><ele>1.0</ele><time>2026-03-25T13:49:14.903Z</time></trkpt><trkpt lat="43.634736" lon="10.455189"><ele>1.0</ele><time>2026-03-25T13:49:15.903Z</time></trkpt><trkpt lat="43.6349586" lon="10.4550451"><ele>1.0</ele><time>2026-03-25T13:49:16.904Z</time></trkpt><trkpt lat="43.635187" lon="10.4548992"><ele>1.0</ele><time>2026-03-25T13:49:17.904Z</time></trkpt><trkpt lat="43.6354173" lon="10.4547536"><ele>1.0</ele><time>2026-03-25T13:49:18.903Z</time></trkpt><trkpt lat="43.6356516" lon="10.4546084"><ele>1.0</ele><time>2026-03-25T13:49:19.903Z</time></trkpt><trkpt lat="43.635883" lon="10.4544674"><ele>1.0</ele><time>2026-03-25T13:49:20.904Z</time></trkpt><trkpt lat="43.6361164" lon="10.454318"><ele>1.0</ele><time>2026-03-25T13:49:21.903Z</time></trkpt><trkpt lat="43.6363478" lon="10.4541677"><ele>1.0</ele><time>2026-03-25T13:49:22.904Z</time></trkpt><trkpt lat="43.6365857" lon="10.4540165"><ele>1.0</ele><time>2026-03-25T13:49:23.904Z</time></trkpt><trkpt lat="43.636826" lon="10.4538643"><ele>1.0</ele><time>2026-03-25T13:49:24.904Z</time></trkpt><trkpt lat="43.6370676" lon="10.4537112"><ele>0.5</ele><time>2026-03-25T13:49:25.903Z</time></trkpt><trkpt lat="43.6373127" lon="10.4535578"><ele>0.0</ele><time>2026-03-25T13:49:26.904Z</time></trkpt><trkpt lat="43.6375571" lon="10.4534017"><ele>0.0</ele><time>2026-03-25T13:49:27.903Z</time></trkpt><trkpt lat="43.6377994" lon="10.4532467"><ele>0.0</ele><time>2026-03-25T13:49:28.904Z</time></trkpt><trkpt lat="43.6380411" lon="10.4530924"><ele>1.0</ele><time>2026-03-25T13:49:29.903Z</time></trkpt><trkpt lat="43.6382858" lon="10.4529317"><ele>2.0</ele><time>2026-03-25T13:49:30.903Z</time></trkpt><trkpt lat="43.6385327" lon="10.4527701"><ele>1.0</ele><time>2026-03-25T13:49:31.904Z</time></trkpt><trkpt lat="43.6387853" lon="10.4526102"><ele>0.0</ele><time>2026-03-25T13:49:32.903Z</time></trkpt><trkpt lat="43.6390358" lon="10.4524552"><ele>0.0</ele><time>2026-03-25T13:49:33.904Z</time></trkpt><trkpt lat="43.6392816" lon="10.4523057"><ele>0.0</ele><time>2026-03-25T13:49:34.903Z</time></trkpt><trkpt lat="43.6395206" lon="10.4521543"><ele>0.0</ele><time>2026-03-25T13:49:35.904Z</time></trkpt><trkpt lat="43.6397551" lon="10.4520069"><ele>0.0</ele><time>2026-03-25T13:49:36.904Z</time></trkpt><trkpt lat="43.6399929" lon="10.4518565"><ele>0.0</ele><time>2026-03-25T13:49:37.904Z</time></trkpt><trkpt lat="43.6402314" lon="10.4517063"><ele>0.0</ele><time>2026-03-25T13:49:38.904Z</time></trkpt><trkpt lat="43.6404695" lon="10.4515532"><ele>0.0</ele><time>2026-03-25T13:49:39.904Z</time></trkpt><trkpt lat="43.640706" lon="10.4514072"><ele>0.0</ele><time>2026-03-25T13:49:40.903Z</time></trkpt><trkpt lat="43.6409399" lon="10.4512607"><ele>0.0</ele><time>2026-03-25T13:49:41.904Z</time></trkpt><trkpt lat="43.6411622" lon="10.451118"><ele>0.0</ele><time>2026-03-25T13:49:42.904Z</time></trkpt><trkpt lat="43.6413762" lon="10.4509843"><ele>0.0</ele><time>2026-03-25T13:49:43.903Z</time></trkpt><trkpt lat="43.6415881" lon="10.4508474"><ele>0.0</ele><time>2026-03-25T13:49:44.903Z</time></trkpt><trkpt lat="43.6418052" lon="10.4507167"><ele>0.5</ele><time>2026-03-25T13:49:45.904Z</time></trkpt><trkpt lat="43.6420145" lon="10.4505873"><ele>1.0</ele><time>2026-03-25T13:49:46.904Z</time></trkpt><trkpt lat="43.6422201" lon="10.450462"><ele>1.0</ele><time>2026-03-25T13:49:47.903Z</time></trkpt><trkpt lat="43.6424107" lon="10.4503399"><ele>1.0</ele><time>2026-03-25T13:49:48.904Z</time></trkpt><trkpt lat="43.6425981" lon="10.4502205"><ele>1.0</ele><time>2026-03-25T13:49:49.904Z</time></trkpt><trkpt lat="43.6427762" lon="10.450108"><ele>1.3333333333333333</ele><time>2026-03-25T13:49:50.904Z</time></trkpt><trkpt lat="43.6429417" lon="10.4500027"><ele>1.6666666666666665</ele><time>2026-03-25T13:49:51.904Z</time></trkpt><trkpt lat="43.643097" lon="10.4499007"><ele>2.0</ele><time>2026-03-25T13:49:52.904Z</time></trkpt><trkpt lat="43.6432393" lon="10.449808"><ele>2.0</ele><time>2026-03-25T13:49:53.904Z</time></trkpt><trkpt lat="43.6433636" lon="10.4497276"><ele>2.0</ele><time>2026-03-25T13:49:54.904Z</time></trkpt><trkpt lat="43.6434609" lon="10.4496688"><ele>2.0</ele><time>2026-03-25T13:49:55.904Z</time></trkpt><trkpt lat="43.6435345" lon="10.4496188"><ele>2.0</ele><time>2026-03-25T13:49:56.905Z</time></trkpt><trkpt lat="43.6436284" lon="10.4495585"><ele>2.0</ele><time>2026-03-25T13:49:58.904Z</time></trkpt><trkpt lat="43.6437062" lon="10.4495086"><ele>2.2</ele><time>2026-03-25T13:50:13.903Z</time></trkpt><trkpt lat="43.6437686" lon="10.4494656"><ele>2.4000000000000004</ele><time>2026-03-25T13:50:15.904Z</time></trkpt><trkpt lat="43.6438585" lon="10.449409"><ele>2.5999999999999996</ele><time>2026-03-25T13:50:17.905Z</time></trkpt><trkpt lat="43.6439471" lon="10.4493589"><ele>2.8</ele><time>2026-03-25T13:50:19.905Z</time></trkpt><trkpt lat="43.6440484" lon="10.4493227"><ele>3.0</ele><time>2026-03-25T13:50:21.903Z</time></trkpt><trkpt lat="43.6441666" lon="10.4493215"><ele>3.0</ele><time>2026-03-25T13:50:23.905Z</time></trkpt><trkpt lat="43.6442829" lon="10.4493605"><ele>3.0</ele><time>2026-03-25T13:50:25.904Z</time></trkpt><trkpt lat="43.6443731" lon="10.4494343"><ele>3.0</ele><time>2026-03-25T13:50:27.904Z</time></trkpt><trkpt lat="43.6444428" lon="10.4495397"><ele>3.0</ele><time>2026-03-25T13:50:29.903Z</time></trkpt><trkpt lat="43.6445045" lon="10.4496965"><ele>2.6666666666666665</ele><time>2026-03-25T13:50:31.904Z</time></trkpt><trkpt lat="43.6445394" lon="10.4497872"><ele>2.3333333333333335</ele><time>2026-03-25T13:50:32.904Z</time></trkpt><trkpt lat="43.6445755" lon="10.4498886"><ele>2.0</ele><time>2026-03-25T13:50:33.903Z</time></trkpt><trkpt lat="43.6446141" lon="10.4499958"><ele>1.6666666666666665</ele><time>2026-03-25T13:50:34.904Z</time></trkpt><trkpt lat="43.6446516" lon="10.4501123"><ele>1.3333333333333333</ele><time>2026-03-25T13:50:35.904Z</time></trkpt><trkpt lat="43.6446849" lon="10.4502286"><ele>1.0</ele><time>2026-03-25T13:50:36.903Z</time></trkpt><trkpt lat="43.6447163" lon="10.4503429"><ele>1.0</ele><time>2026-03-25T13:50:37.905Z</time></trkpt><trkpt lat="43.6447507" lon="10.4504598"><ele>1.0</ele><time>2026-03-25T13:50:38.904Z</time></trkpt><trkpt lat="43.6447866" lon="10.4505779"><ele>1.0</ele><time>2026-03-25T13:50:39.903Z</time></trkpt><trkpt lat="43.6448256" lon="10.4506978"><ele>1.0</ele><time>2026-03-25T13:50:40.904Z</time></trkpt><trkpt lat="43.6448646" lon="10.4508204"><ele>1.0</ele><time>2026-03-25T13:50:41.903Z</time></trkpt><trkpt lat="43.6449004" lon="10.4509472"><ele>1.0</ele><time>2026-03-25T13:50:42.903Z</time></trkpt><trkpt lat="43.6449391" lon="10.4510751"><ele>1.0</ele><time>2026-03-25T13:50:43.904Z</time></trkpt><trkpt lat="43.6449825" lon="10.4512184"><ele>1.0</ele><time>2026-03-25T13:50:44.904Z</time></trkpt><trkpt lat="43.6450272" lon="10.451368"><ele>1.0</ele><time>2026-03-25T13:50:45.903Z</time></trkpt><trkpt lat="43.6450709" lon="10.4515326"><ele>1.0</ele><time>2026-03-25T13:50:46.903Z</time></trkpt><trkpt lat="43.6451137" lon="10.4516891"><ele>1.0</ele><time>2026-03-25T13:50:47.903Z</time></trkpt><trkpt lat="43.6451589" lon="10.4518543"><ele>1.0</ele><time>2026-03-25T13:50:48.905Z</time></trkpt><trkpt lat="43.6452072" lon="10.452026"><ele>1.0</ele><time>2026-03-25T13:50:49.904Z</time></trkpt><trkpt lat="43.6452612" lon="10.4522045"><ele>1.0</ele><time>2026-03-25T13:50:50.904Z</time></trkpt><trkpt lat="43.6453173" lon="10.4523965"><ele>1.0</ele><time>2026-03-25T13:50:51.904Z</time></trkpt><trkpt lat="43.6453776" lon="10.4526102"><ele>1.0</ele><time>2026-03-25T13:50:52.903Z</time></trkpt><trkpt lat="43.6454381" lon="10.4528265"><ele>1.0</ele><time>2026-03-25T13:50:53.903Z</time></trkpt><trkpt lat="43.6454977" lon="10.4530342"><ele>1.0</ele><time>2026-03-25T13:50:54.903Z</time></trkpt><trkpt lat="43.6455619" lon="10.453259"><ele>1.0</ele><time>2026-03-25T13:50:55.903Z</time></trkpt><trkpt lat="43.6456286" lon="10.4534827"><ele>1.0</ele><time>2026-03-25T13:50:56.904Z</time></trkpt><trkpt lat="43.6456981" lon="10.4537177"><ele>1.0</ele><time>2026-03-25T13:50:57.905Z</time></trkpt><trkpt lat="43.6457748" lon="10.453957"><ele>1.0</ele><time>2026-03-25T13:50:58.904Z</time></trkpt><trkpt lat="43.6458506" lon="10.454207"><ele>1.3333333333333333</ele><time>2026-03-25T13:50:59.904Z</time></trkpt><trkpt lat="43.6459285" lon="10.4544535"><ele>1.6666666666666665</ele><time>2026-03-25T13:51:00.904Z</time></trkpt><trkpt lat="43.6460018" lon="10.4547015"><ele>2.0</ele><time>2026-03-25T13:51:01.903Z</time></trkpt><trkpt lat="43.6460751" lon="10.4549442"><ele>1.3333333333333333</ele><time>2026-03-25T13:51:02.905Z</time></trkpt><trkpt lat="43.6461439" lon="10.4551846"><ele>0.6666666666666666</ele><time>2026-03-25T13:51:03.903Z</time></trkpt><trkpt lat="43.6461982" lon="10.4554322"><ele>0.0</ele><time>2026-03-25T13:51:04.904Z</time></trkpt><trkpt lat="43.6462401" lon="10.4556846"><ele>0.0</ele><time>2026-03-25T13:51:05.905Z</time></trkpt><trkpt lat="43.6462798" lon="10.45593"><ele>0.0</ele><time>2026-03-25T13:51:06.903Z</time></trkpt><trkpt lat="43.6463275" lon="10.4561823"><ele>0.0</ele><time>2026-03-25T13:51:07.904Z</time></trkpt><trkpt lat="43.6463918" lon="10.4564325"><ele>0.3333333333333333</ele><time>2026-03-25T13:51:08.904Z</time></trkpt><trkpt lat="43.646465" lon="10.4566945"><ele>0.6666666666666666</ele><time>2026-03-25T13:51:09.904Z</time></trkpt><trkpt lat="43.6465437" lon="10.4569634"><ele>1.0</ele><time>2026-03-25T13:51:10.904Z</time></trkpt><trkpt lat="43.6466217" lon="10.4572415"><ele>1.0</ele><time>2026-03-25T13:51:11.903Z</time></trkpt><trkpt lat="43.6466981" lon="10.4575097"><ele>1.0</ele><time>2026-03-25T13:51:12.903Z</time></trkpt><trkpt lat="43.6467732" lon="10.4577748"><ele>1.0</ele><time>2026-03-25T13:51:13.904Z</time></trkpt><trkpt lat="43.6468519" lon="10.45804"><ele>0.6666666666666666</ele><time>2026-03-25T13:51:14.905Z</time></trkpt><trkpt lat="43.6469328" lon="10.4583114"><ele>0.3333333333333333</ele><time>2026-03-25T13:51:15.904Z</time></trkpt><trkpt lat="43.647015" lon="10.4585881"><ele>0.0</ele><time>2026-03-25T13:51:16.904Z</time></trkpt><trkpt lat="43.6470943" lon="10.458876"><ele>0.3333333333333333</ele><time>2026-03-25T13:51:17.903Z</time></trkpt><trkpt lat="43.6471758" lon="10.4591593"><ele>0.6666666666666666</ele><time>2026-03-25T13:51:18.903Z</time></trkpt><trkpt lat="43.6472565" lon="10.4594454"><ele>1.0</ele><time>2026-03-25T13:51:19.904Z</time></trkpt><trkpt lat="43.647336" lon="10.4597241"><ele>1.0</ele><time>2026-03-25T13:51:20.903Z</time></trkpt><trkpt lat="43.6474168" lon="10.459996"><ele>1.0</ele><time>2026-03-25T13:51:21.904Z</time></trkpt><trkpt lat="43.6474916" lon="10.4602565"><ele>1.0</ele><time>2026-03-25T13:51:22.904Z</time></trkpt><trkpt lat="43.647564" lon="10.4605132"><ele>1.3333333333333333</ele><time>2026-03-25T13:51:23.904Z</time></trkpt><trkpt lat="43.647638" lon="10.4607654"><ele>1.6666666666666665</ele><time>2026-03-25T13:51:24.903Z</time></trkpt><trkpt lat="43.6477167" lon="10.4610166"><ele>2.0</ele><time>2026-03-25T13:51:25.903Z</time></trkpt><trkpt lat="43.6478158" lon="10.4612554"><ele>1.6666666666666665</ele><time>2026-03-25T13:51:26.904Z</time></trkpt><trkpt lat="43.6479203" lon="10.4614902"><ele>1.3333333333333333</ele><time>2026-03-25T13:51:27.903Z</time></trkpt><trkpt lat="43.648026" lon="10.46173"><ele>1.0</ele><time>2026-03-25T13:51:28.903Z</time></trkpt><trkpt lat="43.6481182" lon="10.461981"><ele>1.0</ele><time>2026-03-25T13:51:29.905Z</time></trkpt><trkpt lat="43.6481966" lon="10.462246"><ele>1.0</ele><time>2026-03-25T13:51:30.903Z</time></trkpt><trkpt lat="43.6482823" lon="10.4625185"><ele>1.0</ele><time>2026-03-25T13:51:31.904Z</time></trkpt><trkpt lat="43.6483627" lon="10.4628045"><ele>1.0</ele><time>2026-03-25T13:51:32.905Z</time></trkpt><trkpt lat="43.6484444" lon="10.4630971"><ele>1.0</ele><time>2026-03-25T13:51:33.905Z</time></trkpt><trkpt lat="43.6485241" lon="10.4633968"><ele>1.0</ele><time>2026-03-25T13:51:34.903Z</time></trkpt><trkpt lat="43.648601" lon="10.4637031"><ele>1.0</ele><time>2026-03-25T13:51:35.904Z</time></trkpt><trkpt lat="43.6486803" lon="10.4640096"><ele>1.0</ele><time>2026-03-25T13:51:36.904Z</time></trkpt><trkpt lat="43.6487655" lon="10.4643224"><ele>1.0</ele><time>2026-03-25T13:51:37.904Z</time></trkpt><trkpt lat="43.6488523" lon="10.464632"><ele>1.0</ele><time>2026-03-25T13:51:38.903Z</time></trkpt><trkpt lat="43.6489419" lon="10.4649403"><ele>1.0</ele><time>2026-03-25T13:51:39.904Z</time></trkpt><trkpt lat="43.6490328" lon="10.4652492"><ele>1.0</ele><time>2026-03-25T13:51:40.904Z</time></trkpt><trkpt lat="43.6491254" lon="10.4655576"><ele>1.0</ele><time>2026-03-25T13:51:41.904Z</time></trkpt><trkpt lat="43.6492188" lon="10.4658698"><ele>1.0</ele><time>2026-03-25T13:51:42.905Z</time></trkpt><trkpt lat="43.6493096" lon="10.466184"><ele>1.0</ele><time>2026-03-25T13:51:43.903Z</time></trkpt><trkpt lat="43.6494026" lon="10.4664921"><ele>1.0</ele><time>2026-03-25T13:51:44.904Z</time></trkpt><trkpt lat="43.6494978" lon="10.4667947"><ele>1.0</ele><time>2026-03-25T13:51:45.904Z</time></trkpt><trkpt lat="43.6495903" lon="10.4670831"><ele>1.0</ele><time>2026-03-25T13:51:46.903Z</time></trkpt><trkpt lat="43.6496883" lon="10.4673694"><ele>1.0</ele><time>2026-03-25T13:51:47.904Z</time></trkpt><trkpt lat="43.649786" lon="10.4676548"><ele>1.0</ele><time>2026-03-25T13:51:48.904Z</time></trkpt><trkpt lat="43.6498828" lon="10.4679352"><ele>1.0</ele><time>2026-03-25T13:51:49.904Z</time></trkpt><trkpt lat="43.6499744" lon="10.4682304"><ele>1.5</ele><time>2026-03-25T13:51:50.904Z</time></trkpt><trkpt lat="43.6500693" lon="10.4685275"><ele>2.0</ele><time>2026-03-25T13:51:51.904Z</time></trkpt><trkpt lat="43.6501661" lon="10.4688292"><ele>2.0</ele><time>2026-03-25T13:51:52.904Z</time></trkpt><trkpt lat="43.6502597" lon="10.4691429"><ele>2.0</ele><time>2026-03-25T13:51:53.903Z</time></trkpt><trkpt lat="43.6503524" lon="10.469459"><ele>1.5</ele><time>2026-03-25T13:51:54.905Z</time></trkpt><trkpt lat="43.6504506" lon="10.4697723"><ele>1.0</ele><time>2026-03-25T13:51:55.905Z</time></trkpt><trkpt lat="43.6505466" lon="10.47009"><ele>1.0</ele><time>2026-03-25T13:51:56.904Z</time></trkpt><trkpt lat="43.6506462" lon="10.4704034"><ele>1.0</ele><time>2026-03-25T13:51:57.905Z</time></trkpt><trkpt lat="43.6507419" lon="10.4707187"><ele>1.5</ele><time>2026-03-25T13:51:58.904Z</time></trkpt><trkpt lat="43.6508376" lon="10.4710394"><ele>2.0</ele><time>2026-03-25T13:51:59.903Z</time></trkpt><trkpt lat="43.6509372" lon="10.4713566"><ele>2.0</ele><time>2026-03-25T13:52:00.903Z</time></trkpt><trkpt lat="43.6510356" lon="10.4716758"><ele>2.0</ele><time>2026-03-25T13:52:01.903Z</time></trkpt><trkpt lat="43.6511319" lon="10.4719935"><ele>2.0</ele><time>2026-03-25T13:52:02.904Z</time></trkpt><trkpt lat="43.6512305" lon="10.4723089"><ele>2.0</ele><time>2026-03-25T13:52:03.904Z</time></trkpt><trkpt lat="43.6513234" lon="10.4726192"><ele>2.0</ele><time>2026-03-25T13:52:04.905Z</time></trkpt><trkpt lat="43.6514107" lon="10.4729197"><ele>2.0</ele><time>2026-03-25T13:52:05.904Z</time></trkpt><trkpt lat="43.651498" lon="10.4732074"><ele>2.0</ele><time>2026-03-25T13:52:06.905Z</time></trkpt><trkpt lat="43.65159" lon="10.4735024"><ele>2.0</ele><time>2026-03-25T13:52:07.905Z</time></trkpt><trkpt lat="43.6516865" lon="10.473808"><ele>2.0</ele><time>2026-03-25T13:52:08.904Z</time></trkpt><trkpt lat="43.6517846" lon="10.4741261"><ele>2.0</ele><time>2026-03-25T13:52:09.903Z</time></trkpt><trkpt lat="43.6518856" lon="10.47445"><ele>2.0</ele><time>2026-03-25T13:52:10.903Z</time></trkpt><trkpt lat="43.6519849" lon="10.4747718"><ele>2.0</ele><time>2026-03-25T13:52:11.903Z</time></trkpt><trkpt lat="43.6520805" lon="10.4750903"><ele>2.0</ele><time>2026-03-25T13:52:12.904Z</time></trkpt><trkpt lat="43.6521715" lon="10.4753949"><ele>2.0</ele><time>2026-03-25T13:52:13.903Z</time></trkpt><trkpt lat="43.6522643" lon="10.475695"><ele>2.5</ele><time>2026-03-25T13:52:14.903Z</time></trkpt><trkpt lat="43.6523588" lon="10.4759909"><ele>3.0</ele><time>2026-03-25T13:52:15.903Z</time></trkpt><trkpt lat="43.6524542" lon="10.4762867"><ele>3.5</ele><time>2026-03-25T13:52:16.904Z</time></trkpt><trkpt lat="43.6525482" lon="10.4765895"><ele>4.0</ele><time>2026-03-25T13:52:17.904Z</time></trkpt><trkpt lat="43.6526359" lon="10.4768914"><ele>4.5</ele><time>2026-03-25T13:52:18.904Z</time></trkpt><trkpt lat="43.6527309" lon="10.4771955"><ele>5.0</ele><time>2026-03-25T13:52:19.905Z</time></trkpt><trkpt lat="43.6528248" lon="10.4775025"><ele>3.5</ele><time>2026-03-25T13:52:20.904Z</time></trkpt><trkpt lat="43.6529199" lon="10.4778136"><ele>2.0</ele><time>2026-03-25T13:52:21.904Z</time></trkpt><trkpt lat="43.6530144" lon="10.4781218"><ele>1.5</ele><time>2026-03-25T13:52:22.904Z</time></trkpt><trkpt lat="43.6531079" lon="10.4784358"><ele>1.0</ele><time>2026-03-25T13:52:23.903Z</time></trkpt><trkpt lat="43.6532031" lon="10.4787524"><ele>1.5</ele><time>2026-03-25T13:52:24.903Z</time></trkpt><trkpt lat="43.6532984" lon="10.479064"><ele>2.0</ele><time>2026-03-25T13:52:25.903Z</time></trkpt><trkpt lat="43.6533963" lon="10.4793744"><ele>2.5</ele><time>2026-03-25T13:52:26.903Z</time></trkpt><trkpt lat="43.6534872" lon="10.4796832"><ele>3.0</ele><time>2026-03-25T13:52:27.904Z</time></trkpt><trkpt lat="43.6535743" lon="10.4799872"><ele>2.5</ele><time>2026-03-25T13:52:28.903Z</time></trkpt><trkpt lat="43.6536571" lon="10.4802917"><ele>2.0</ele><time>2026-03-25T13:52:29.904Z</time></trkpt><trkpt lat="43.6537286" lon="10.480601"><ele>2.0</ele><time>2026-03-25T13:52:30.903Z</time></trkpt><trkpt lat="43.6537945" lon="10.4809159"><ele>2.0</ele><time>2026-03-25T13:52:31.903Z</time></trkpt><trkpt lat="43.6538567" lon="10.4812359"><ele>2.0</ele><time>2026-03-25T13:52:32.904Z</time></trkpt><trkpt lat="43.6539139" lon="10.4815612"><ele>2.0</ele><time>2026-03-25T13:52:33.905Z</time></trkpt><trkpt lat="43.6539767" lon="10.4818815"><ele>2.0</ele><time>2026-03-25T13:52:34.904Z</time></trkpt><trkpt lat="43.6540334" lon="10.4822161"><ele>2.0</ele><time>2026-03-25T13:52:35.904Z</time></trkpt><trkpt lat="43.654095" lon="10.4825514"><ele>2.0</ele><time>2026-03-25T13:52:36.904Z</time></trkpt><trkpt lat="43.6541532" lon="10.482885"><ele>2.0</ele><time>2026-03-25T13:52:37.904Z</time></trkpt><trkpt lat="43.6542098" lon="10.4832089"><ele>2.0</ele><time>2026-03-25T13:52:38.903Z</time></trkpt><trkpt lat="43.6542669" lon="10.4835323"><ele>2.0</ele><time>2026-03-25T13:52:39.904Z</time></trkpt><trkpt lat="43.6543235" lon="10.4838456"><ele>2.5</ele><time>2026-03-25T13:52:40.904Z</time></trkpt><trkpt lat="43.6543835" lon="10.4841626"><ele>3.0</ele><time>2026-03-25T13:52:41.904Z</time></trkpt><trkpt lat="43.6544417" lon="10.4844781"><ele>2.0</ele><time>2026-03-25T13:52:42.903Z</time></trkpt><trkpt lat="43.6545015" lon="10.4847916"><ele>1.0</ele><time>2026-03-25T13:52:43.903Z</time></trkpt><trkpt lat="43.6545579" lon="10.4851125"><ele>1.5</ele><time>2026-03-25T13:52:44.904Z</time></trkpt><trkpt lat="43.6546184" lon="10.4854377"><ele>2.0</ele><time>2026-03-25T13:52:45.904Z</time></trkpt><trkpt lat="43.6546797" lon="10.4857736"><ele>2.0</ele><time>2026-03-25T13:52:46.903Z</time></trkpt><trkpt lat="43.6547439" lon="10.4861207"><ele>2.0</ele><time>2026-03-25T13:52:47.903Z</time></trkpt><trkpt lat="43.6548032" lon="10.486475"><ele>2.5</ele><time>2026-03-25T13:52:48.904Z</time></trkpt><trkpt lat="43.6548551" lon="10.4868246"><ele>3.0</ele><time>2026-03-25T13:52:49.904Z</time></trkpt><trkpt lat="43.6549067" lon="10.4871593"><ele>3.0</ele><time>2026-03-25T13:52:50.903Z</time></trkpt><trkpt lat="43.6549587" lon="10.4874858"><ele>3.0</ele><time>2026-03-25T13:52:51.904Z</time></trkpt><trkpt lat="43.6550129" lon="10.4878054"><ele>3.0</ele><time>2026-03-25T13:52:52.903Z</time></trkpt><trkpt lat="43.6550673" lon="10.4881254"><ele>3.0</ele><time>2026-03-25T13:52:53.903Z</time></trkpt><trkpt lat="43.6551198" lon="10.4884455"><ele>3.0</ele><time>2026-03-25T13:52:54.903Z</time></trkpt><trkpt lat="43.6551719" lon="10.4887581"><ele>3.0</ele><time>2026-03-25T13:52:55.903Z</time></trkpt><trkpt lat="43.6552263" lon="10.4890723"><ele>3.0</ele><time>2026-03-25T13:52:56.903Z</time></trkpt><trkpt lat="43.655279" lon="10.4893806"><ele>3.0</ele><time>2026-03-25T13:52:57.903Z</time></trkpt><trkpt lat="43.6553305" lon="10.4896924"><ele>2.5</ele><time>2026-03-25T13:52:58.905Z</time></trkpt><trkpt lat="43.6553857" lon="10.4900005"><ele>2.0</ele><time>2026-03-25T13:52:59.903Z</time></trkpt><trkpt lat="43.6554424" lon="10.4903121"><ele>2.0</ele><time>2026-03-25T13:53:00.904Z</time></trkpt><trkpt lat="43.655495" lon="10.4906294"><ele>2.0</ele><time>2026-03-25T13:53:01.905Z</time></trkpt><trkpt lat="43.6555501" lon="10.4909534"><ele>2.5</ele><time>2026-03-25T13:53:02.904Z</time></trkpt><trkpt lat="43.6556092" lon="10.4912824"><ele>3.0</ele><time>2026-03-25T13:53:03.903Z</time></trkpt><trkpt lat="43.6556698" lon="10.4916149"><ele>3.0</ele><time>2026-03-25T13:53:04.905Z</time></trkpt><trkpt lat="43.6557312" lon="10.4919523"><ele>3.0</ele><time>2026-03-25T13:53:05.904Z</time></trkpt><trkpt lat="43.655793" lon="10.4922928"><ele>3.0</ele><time>2026-03-25T13:53:06.903Z</time></trkpt><trkpt lat="43.6558577" lon="10.4926355"><ele>3.0</ele><time>2026-03-25T13:53:07.904Z</time></trkpt><trkpt lat="43.6559188" lon="10.4929888"><ele>3.0</ele><time>2026-03-25T13:53:08.904Z</time></trkpt><trkpt lat="43.655979" lon="10.4933425"><ele>3.0</ele><time>2026-03-25T13:53:09.903Z</time></trkpt><trkpt lat="43.6560415" lon="10.493703"><ele>3.0</ele><time>2026-03-25T13:53:10.905Z</time></trkpt><trkpt lat="43.6561039" lon="10.4940655"><ele>3.0</ele><time>2026-03-25T13:53:11.904Z</time></trkpt><trkpt lat="43.6561678" lon="10.4944303"><ele>2.5</ele><time>2026-03-25T13:53:12.903Z</time></trkpt><trkpt lat="43.6562305" lon="10.4947963"><ele>2.0</ele><time>2026-03-25T13:53:13.903Z</time></trkpt><trkpt lat="43.6562981" lon="10.4951625"><ele>1.5</ele><time>2026-03-25T13:53:14.903Z</time></trkpt><trkpt lat="43.6563654" lon="10.4955337"><ele>1.0</ele><time>2026-03-25T13:53:15.904Z</time></trkpt><trkpt lat="43.6564318" lon="10.4959075"><ele>1.0</ele><time>2026-03-25T13:53:16.905Z</time></trkpt><trkpt lat="43.6565" lon="10.4962828"><ele>1.0</ele><time>2026-03-25T13:53:17.904Z</time></trkpt><trkpt lat="43.6565696" lon="10.4966617"><ele>1.0</ele><time>2026-03-25T13:53:18.903Z</time></trkpt><trkpt lat="43.6566356" lon="10.4970424"><ele>1.0</ele><time>2026-03-25T13:53:19.904Z</time></trkpt><trkpt lat="43.6567026" lon="10.4974196"><ele>1.5</ele><time>2026-03-25T13:53:20.903Z</time></trkpt><trkpt lat="43.6567701" lon="10.4977939"><ele>2.0</ele><time>2026-03-25T13:53:21.904Z</time></trkpt><trkpt lat="43.6568387" lon="10.4981633"><ele>1.5</ele><time>2026-03-25T13:53:22.904Z</time></trkpt><trkpt lat="43.6569028" lon="10.4985242"><ele>1.0</ele><time>2026-03-25T13:53:23.903Z</time></trkpt><trkpt lat="43.656964" lon="10.4988708"><ele>1.0</ele><time>2026-03-25T13:53:24.903Z</time></trkpt><trkpt lat="43.6570242" lon="10.4992092"><ele>1.0</ele><time>2026-03-25T13:53:25.904Z</time></trkpt><trkpt lat="43.6570836" lon="10.4995482"><ele>1.5</ele><time>2026-03-25T13:53:26.904Z</time></trkpt><trkpt lat="43.6571413" lon="10.4998833"><ele>2.0</ele><time>2026-03-25T13:53:27.903Z</time></trkpt><trkpt lat="43.657201" lon="10.5002211"><ele>2.5</ele><time>2026-03-25T13:53:28.903Z</time></trkpt><trkpt lat="43.6572584" lon="10.5005597"><ele>3.0</ele><time>2026-03-25T13:53:29.903Z</time></trkpt><trkpt lat="43.6573177" lon="10.5008982"><ele>3.0</ele><time>2026-03-25T13:53:30.903Z</time></trkpt><trkpt lat="43.6573763" lon="10.5012323"><ele>3.0</ele><time>2026-03-25T13:53:31.903Z</time></trkpt><trkpt lat="43.6574321" lon="10.501552"><ele>3.0</ele><time>2026-03-25T13:53:32.904Z</time></trkpt><trkpt lat="43.6574885" lon="10.5018565"><ele>3.0</ele><time>2026-03-25T13:53:33.904Z</time></trkpt><trkpt lat="43.6575401" lon="10.5021417"><ele>3.0</ele><time>2026-03-25T13:53:34.904Z</time></trkpt><trkpt lat="43.6575915" lon="10.5024158"><ele>3.0</ele><time>2026-03-25T13:53:35.903Z</time></trkpt><trkpt lat="43.6576424" lon="10.5026862"><ele>3.0</ele><time>2026-03-25T13:53:36.904Z</time></trkpt><trkpt lat="43.6576914" lon="10.5029601"><ele>3.0</ele><time>2026-03-25T13:53:37.905Z</time></trkpt><trkpt lat="43.6577389" lon="10.5032285"><ele>3.333333333333333</ele><time>2026-03-25T13:53:38.903Z</time></trkpt><trkpt lat="43.6577844" lon="10.5034887"><ele>3.6666666666666665</ele><time>2026-03-25T13:53:39.904Z</time></trkpt><trkpt lat="43.6578314" lon="10.5037441"><ele>4.0</ele><time>2026-03-25T13:53:40.905Z</time></trkpt><trkpt lat="43.657871" lon="10.5039907"><ele>3.6666666666666665</ele><time>2026-03-25T13:53:41.905Z</time></trkpt><trkpt lat="43.6579081" lon="10.5042294"><ele>3.333333333333333</ele><time>2026-03-25T13:53:42.904Z</time></trkpt><trkpt lat="43.6579466" lon="10.5044608"><ele>3.0</ele><time>2026-03-25T13:53:43.903Z</time></trkpt><trkpt lat="43.657987" lon="10.5046911"><ele>3.0</ele><time>2026-03-25T13:53:44.904Z</time></trkpt><trkpt lat="43.6580262" lon="10.5049213"><ele>3.0</ele><time>2026-03-25T13:53:45.904Z</time></trkpt><trkpt lat="43.6580634" lon="10.5051451"><ele>3.0</ele><time>2026-03-25T13:53:46.904Z</time></trkpt><trkpt lat="43.6580924" lon="10.5053676"><ele>3.333333333333333</ele><time>2026-03-25T13:53:47.903Z</time></trkpt><trkpt lat="43.6581263" lon="10.5055898"><ele>3.6666666666666665</ele><time>2026-03-25T13:53:48.904Z</time></trkpt><trkpt lat="43.6581657" lon="10.5058198"><ele>4.0</ele><time>2026-03-25T13:53:49.904Z</time></trkpt><trkpt lat="43.6582052" lon="10.5060589"><ele>4.666666666666666</ele><time>2026-03-25T13:53:50.904Z</time></trkpt><trkpt lat="43.6582481" lon="10.5063075"><ele>5.333333333333333</ele><time>2026-03-25T13:53:51.904Z</time></trkpt><trkpt lat="43.6582889" lon="10.5065567"><ele>6.0</ele><time>2026-03-25T13:53:52.904Z</time></trkpt><trkpt lat="43.6583418" lon="10.5068227"><ele>5.666666666666667</ele><time>2026-03-25T13:53:53.904Z</time></trkpt><trkpt lat="43.6584006" lon="10.5070934"><ele>5.333333333333334</ele><time>2026-03-25T13:53:54.905Z</time></trkpt><trkpt lat="43.6584575" lon="10.507375"><ele>5.0</ele><time>2026-03-25T13:53:55.904Z</time></trkpt><trkpt lat="43.6585139" lon="10.5076689"><ele>4.5</ele><time>2026-03-25T13:53:56.903Z</time></trkpt><trkpt lat="43.6585698" lon="10.5079744"><ele>4.0</ele><time>2026-03-25T13:53:57.904Z</time></trkpt><trkpt lat="43.6586281" lon="10.5082788"><ele>4.0</ele><time>2026-03-25T13:53:58.905Z</time></trkpt><trkpt lat="43.6586887" lon="10.5085761"><ele>4.0</ele><time>2026-03-25T13:53:59.904Z</time></trkpt><trkpt lat="43.6587456" lon="10.5088801"><ele>4.0</ele><time>2026-03-25T13:54:00.904Z</time></trkpt><trkpt lat="43.6588032" lon="10.5091829"><ele>4.0</ele><time>2026-03-25T13:54:01.904Z</time></trkpt><trkpt lat="43.6588563" lon="10.5094893"><ele>3.5</ele><time>2026-03-25T13:54:02.904Z</time></trkpt><trkpt lat="43.6589126" lon="10.5098023"><ele>3.0</ele><time>2026-03-25T13:54:03.903Z</time></trkpt><trkpt lat="43.6589675" lon="10.5101188"><ele>3.5</ele><time>2026-03-25T13:54:04.904Z</time></trkpt><trkpt lat="43.6590238" lon="10.5104335"><ele>4.0</ele><time>2026-03-25T13:54:05.904Z</time></trkpt><trkpt lat="43.6590823" lon="10.5107563"><ele>4.0</ele><time>2026-03-25T13:54:06.904Z</time></trkpt><trkpt lat="43.6591393" lon="10.5110723"><ele>4.0</ele><time>2026-03-25T13:54:07.904Z</time></trkpt><trkpt lat="43.6591949" lon="10.5113967"><ele>3.5</ele><time>2026-03-25T13:54:08.904Z</time></trkpt><trkpt lat="43.6592519" lon="10.5117253"><ele>3.0</ele><time>2026-03-25T13:54:09.904Z</time></trkpt><trkpt lat="43.6593091" lon="10.5120602"><ele>2.5</ele><time>2026-03-25T13:54:10.903Z</time></trkpt><trkpt lat="43.6593694" lon="10.5124061"><ele>2.0</ele><time>2026-03-25T13:54:11.904Z</time></trkpt><trkpt lat="43.659433" lon="10.5127614"><ele>2.5</ele><time>2026-03-25T13:54:12.905Z</time></trkpt><trkpt lat="43.6594991" lon="10.5131168"><ele>3.0</ele><time>2026-03-25T13:54:13.903Z</time></trkpt><trkpt lat="43.659555" lon="10.5134573"><ele>3.5</ele><time>2026-03-25T13:54:14.904Z</time></trkpt><trkpt lat="43.6596131" lon="10.5137874"><ele>4.0</ele><time>2026-03-25T13:54:15.904Z</time></trkpt><trkpt lat="43.6596713" lon="10.514112"><ele>4.0</ele><time>2026-03-25T13:54:16.903Z</time></trkpt><trkpt lat="43.6597288" lon="10.5144336"><ele>4.0</ele><time>2026-03-25T13:54:17.903Z</time></trkpt><trkpt lat="43.6597913" lon="10.5147592"><ele>4.0</ele><time>2026-03-25T13:54:18.903Z</time></trkpt><trkpt lat="43.6598503" lon="10.5150902"><ele>4.0</ele><time>2026-03-25T13:54:19.903Z</time></trkpt><trkpt lat="43.6599114" lon="10.5154263"><ele>4.0</ele><time>2026-03-25T13:54:20.904Z</time></trkpt><trkpt lat="43.6599734" lon="10.5157696"><ele>4.0</ele><time>2026-03-25T13:54:21.903Z</time></trkpt><trkpt lat="43.660033" lon="10.5161119"><ele>4.0</ele><time>2026-03-25T13:54:22.904Z</time></trkpt><trkpt lat="43.6600906" lon="10.5164535"><ele>4.0</ele><time>2026-03-25T13:54:23.904Z</time></trkpt><trkpt lat="43.6601488" lon="10.5167975"><ele>3.5</ele><time>2026-03-25T13:54:24.904Z</time></trkpt><trkpt lat="43.660212" lon="10.5171456"><ele>3.0</ele><time>2026-03-25T13:54:25.905Z</time></trkpt><trkpt lat="43.6602791" lon="10.5175032"><ele>3.5</ele><time>2026-03-25T13:54:26.904Z</time></trkpt><trkpt lat="43.6603433" lon="10.517861"><ele>4.0</ele><time>2026-03-25T13:54:27.904Z</time></trkpt><trkpt lat="43.6604074" lon="10.5182285"><ele>4.0</ele><time>2026-03-25T13:54:28.904Z</time></trkpt><trkpt lat="43.6604697" lon="10.5185982"><ele>4.0</ele><time>2026-03-25T13:54:29.903Z</time></trkpt><trkpt lat="43.6605348" lon="10.5189743"><ele>4.0</ele><time>2026-03-25T13:54:30.903Z</time></trkpt><trkpt lat="43.6605986" lon="10.5193461"><ele>4.0</ele><time>2026-03-25T13:54:31.904Z</time></trkpt><trkpt lat="43.6606617" lon="10.5197157"><ele>4.0</ele><time>2026-03-25T13:54:32.903Z</time></trkpt><trkpt lat="43.6607228" lon="10.5200643"><ele>4.0</ele><time>2026-03-25T13:54:33.903Z</time></trkpt><trkpt lat="43.6607799" lon="10.5204036"><ele>4.0</ele><time>2026-03-25T13:54:34.903Z</time></trkpt><trkpt lat="43.6608354" lon="10.5207362"><ele>4.0</ele><time>2026-03-25T13:54:35.904Z</time></trkpt><trkpt lat="43.6608926" lon="10.5210706"><ele>3.0</ele><time>2026-03-25T13:54:36.903Z</time></trkpt><trkpt lat="43.6609463" lon="10.5214087"><ele>2.0</ele><time>2026-03-25T13:54:37.905Z</time></trkpt><trkpt lat="43.6610071" lon="10.5217489"><ele>2.0</ele><time>2026-03-25T13:54:38.904Z</time></trkpt><trkpt lat="43.6610664" lon="10.5220828"><ele>2.0</ele><time>2026-03-25T13:54:39.904Z</time></trkpt><trkpt lat="43.6611278" lon="10.5224218"><ele>2.0</ele><time>2026-03-25T13:54:40.904Z</time></trkpt><trkpt lat="43.6611874" lon="10.5227515"><ele>2.0</ele><time>2026-03-25T13:54:41.904Z</time></trkpt><trkpt lat="43.6612452" lon="10.5230763"><ele>3.0</ele><time>2026-03-25T13:54:42.904Z</time></trkpt><trkpt lat="43.6613032" lon="10.5233949"><ele>4.0</ele><time>2026-03-25T13:54:43.904Z</time></trkpt><trkpt lat="43.6613588" lon="10.5237128"><ele>4.0</ele><time>2026-03-25T13:54:44.904Z</time></trkpt><trkpt lat="43.6614143" lon="10.5240255"><ele>4.0</ele><time>2026-03-25T13:54:45.904Z</time></trkpt><trkpt lat="43.6614676" lon="10.5243344"><ele>4.333333333333333</ele><time>2026-03-25T13:54:46.903Z</time></trkpt><trkpt lat="43.6615164" lon="10.5246315"><ele>4.666666666666667</ele><time>2026-03-25T13:54:47.904Z</time></trkpt><trkpt lat="43.6615672" lon="10.5249242"><ele>5.0</ele><time>2026-03-25T13:54:48.903Z</time></trkpt><trkpt lat="43.6616165" lon="10.5252101"><ele>5.333333333333334</ele><time>2026-03-25T13:54:49.903Z</time></trkpt><trkpt lat="43.6616668" lon="10.5254955"><ele>5.666666666666667</ele><time>2026-03-25T13:54:50.904Z</time></trkpt><trkpt lat="43.6617211" lon="10.5257786"><ele>6.0</ele><time>2026-03-25T13:54:51.904Z</time></trkpt><trkpt lat="43.6617668" lon="10.5260682"><ele>5.666666666666667</ele><time>2026-03-25T13:54:52.903Z</time></trkpt><trkpt lat="43.6618134" lon="10.5263575"><ele>5.333333333333334</ele><time>2026-03-25T13:54:53.905Z</time></trkpt><trkpt lat="43.6618655" lon="10.5266548"><ele>5.0</ele><time>2026-03-25T13:54:54.904Z</time></trkpt><trkpt lat="43.6619193" lon="10.5269629"><ele>4.5</ele><time>2026-03-25T13:54:55.903Z</time></trkpt><trkpt lat="43.6619754" lon="10.5272735"><ele>4.0</ele><time>2026-03-25T13:54:56.904Z</time></trkpt><trkpt lat="43.6620309" lon="10.5275865"><ele>4.5</ele><time>2026-03-25T13:54:57.904Z</time></trkpt><trkpt lat="43.6620847" lon="10.527907"><ele>5.0</ele><time>2026-03-25T13:54:58.904Z</time></trkpt><trkpt lat="43.6621406" lon="10.5282267"><ele>5.0</ele><time>2026-03-25T13:54:59.903Z</time></trkpt><trkpt lat="43.6621947" lon="10.5285462"><ele>5.0</ele><time>2026-03-25T13:55:00.904Z</time></trkpt><trkpt lat="43.6622507" lon="10.5288637"><ele>5.0</ele><time>2026-03-25T13:55:01.904Z</time></trkpt><trkpt lat="43.6623064" lon="10.5291876"><ele>5.0</ele><time>2026-03-25T13:55:02.904Z</time></trkpt><trkpt lat="43.6623638" lon="10.5295139"><ele>4.5</ele><time>2026-03-25T13:55:03.904Z</time></trkpt><trkpt lat="43.6624228" lon="10.5298362"><ele>4.0</ele><time>2026-03-25T13:55:04.904Z</time></trkpt><trkpt lat="43.6624891" lon="10.5301581"><ele>4.5</ele><time>2026-03-25T13:55:05.903Z</time></trkpt><trkpt lat="43.6625496" lon="10.5304802"><ele>5.0</ele><time>2026-03-25T13:55:06.904Z</time></trkpt><trkpt lat="43.6626076" lon="10.5308018"><ele>5.0</ele><time>2026-03-25T13:55:07.904Z</time></trkpt><trkpt lat="43.6626618" lon="10.5311237"><ele>5.0</ele><time>2026-03-25T13:55:08.903Z</time></trkpt><trkpt lat="43.6627209" lon="10.5314416"><ele>4.5</ele><time>2026-03-25T13:55:09.904Z</time></trkpt><trkpt lat="43.662773" lon="10.5317604"><ele>4.0</ele><time>2026-03-25T13:55:10.903Z</time></trkpt><trkpt lat="43.6628329" lon="10.5320688"><ele>4.0</ele><time>2026-03-25T13:55:11.904Z</time></trkpt><trkpt lat="43.6628853" lon="10.5323688"><ele>4.0</ele><time>2026-03-25T13:55:12.905Z</time></trkpt><trkpt lat="43.6629336" lon="10.5326596"><ele>4.0</ele><time>2026-03-25T13:55:13.903Z</time></trkpt><trkpt lat="43.6629848" lon="10.5329302"><ele>3.6666666666666665</ele><time>2026-03-25T13:55:14.904Z</time></trkpt><trkpt lat="43.6630266" lon="10.5332089"><ele>3.333333333333333</ele><time>2026-03-25T13:55:15.904Z</time></trkpt><trkpt lat="43.6630673" lon="10.5334921"><ele>3.0</ele><time>2026-03-25T13:55:16.904Z</time></trkpt><trkpt lat="43.6631061" lon="10.5337677"><ele>3.0</ele><time>2026-03-25T13:55:17.903Z</time></trkpt><trkpt lat="43.6631484" lon="10.5340408"><ele>3.0</ele><time>2026-03-25T13:55:18.904Z</time></trkpt><trkpt lat="43.6631945" lon="10.5343252"><ele>3.0</ele><time>2026-03-25T13:55:19.905Z</time></trkpt><trkpt lat="43.6632429" lon="10.5346071"><ele>3.0</ele><time>2026-03-25T13:55:20.903Z</time></trkpt><trkpt lat="43.6632887" lon="10.5348765"><ele>3.0</ele><time>2026-03-25T13:55:21.904Z</time></trkpt><trkpt lat="43.6633353" lon="10.5351496"><ele>3.0</ele><time>2026-03-25T13:55:22.903Z</time></trkpt><trkpt lat="43.6633807" lon="10.5354129"><ele>3.0</ele><time>2026-03-25T13:55:23.904Z</time></trkpt><trkpt lat="43.6634269" lon="10.5356648"><ele>3.0</ele><time>2026-03-25T13:55:24.904Z</time></trkpt><trkpt lat="43.6634872" lon="10.5359095"><ele>3.0</ele><time>2026-03-25T13:55:25.904Z</time></trkpt><trkpt lat="43.6635398" lon="10.5361641"><ele>3.333333333333333</ele><time>2026-03-25T13:55:26.905Z</time></trkpt><trkpt lat="43.6635941" lon="10.5364036"><ele>3.6666666666666665</ele><time>2026-03-25T13:55:27.903Z</time></trkpt><trkpt lat="43.6636424" lon="10.5366478"><ele>4.0</ele><time>2026-03-25T13:55:28.904Z</time></trkpt><trkpt lat="43.663694" lon="10.5369105"><ele>4.333333333333333</ele><time>2026-03-25T13:55:29.904Z</time></trkpt><trkpt lat="43.6637456" lon="10.5371867"><ele>4.666666666666667</ele><time>2026-03-25T13:55:30.905Z</time></trkpt><trkpt lat="43.6637893" lon="10.5374741"><ele>5.0</ele><time>2026-03-25T13:55:31.903Z</time></trkpt><trkpt lat="43.6638293" lon="10.537768"><ele>5.0</ele><time>2026-03-25T13:55:32.903Z</time></trkpt><trkpt lat="43.663874" lon="10.5380655"><ele>5.0</ele><time>2026-03-25T13:55:33.903Z</time></trkpt><trkpt lat="43.6639262" lon="10.5383643"><ele>5.0</ele><time>2026-03-25T13:55:34.904Z</time></trkpt><trkpt lat="43.6639796" lon="10.5386479"><ele>5.0</ele><time>2026-03-25T13:55:35.904Z</time></trkpt><trkpt lat="43.6640286" lon="10.5389181"><ele>5.0</ele><time>2026-03-25T13:55:36.903Z</time></trkpt><trkpt lat="43.664076" lon="10.539179"><ele>5.0</ele><time>2026-03-25T13:55:37.904Z</time></trkpt><trkpt lat="43.6641181" lon="10.5394348"><ele>5.333333333333334</ele><time>2026-03-25T13:55:38.904Z</time></trkpt><trkpt lat="43.6641576" lon="10.5396841"><ele>5.666666666666667</ele><time>2026-03-25T13:55:39.904Z</time></trkpt><trkpt lat="43.6642053" lon="10.5399339"><ele>6.0</ele><time>2026-03-25T13:55:40.904Z</time></trkpt><trkpt lat="43.6642479" lon="10.5401799"><ele>6.0</ele><time>2026-03-25T13:55:41.904Z</time></trkpt><trkpt lat="43.6642872" lon="10.540419"><ele>6.0</ele><time>2026-03-25T13:55:42.904Z</time></trkpt><trkpt lat="43.6643263" lon="10.5406427"><ele>6.0</ele><time>2026-03-25T13:55:43.904Z</time></trkpt><trkpt lat="43.664361" lon="10.5408513"><ele>6.0</ele><time>2026-03-25T13:55:44.905Z</time></trkpt><trkpt lat="43.6643966" lon="10.5410324"><ele>6.0</ele><time>2026-03-25T13:55:45.903Z</time></trkpt><trkpt lat="43.6644289" lon="10.5411853"><ele>6.0</ele><time>2026-03-25T13:55:46.904Z</time></trkpt><trkpt lat="43.6644505" lon="10.5413315"><ele>6.0</ele><time>2026-03-25T13:55:47.904Z</time></trkpt><trkpt lat="43.6644641" lon="10.5414585"><ele>6.0</ele><time>2026-03-25T13:55:48.903Z</time></trkpt><trkpt lat="43.6644661" lon="10.5415649"><ele>6.0</ele><time>2026-03-25T13:55:49.905Z</time></trkpt><trkpt lat="43.664463" lon="10.5416688"><ele>6.0</ele><time>2026-03-25T13:55:50.903Z</time></trkpt><trkpt lat="43.664464" lon="10.541769"><ele>6.0</ele><time>2026-03-25T13:55:51.904Z</time></trkpt><trkpt lat="43.6644833" lon="10.5418619"><ele>6.0</ele><time>2026-03-25T13:55:52.904Z</time></trkpt><trkpt lat="43.6645208" lon="10.5419597"><ele>6.0</ele><time>2026-03-25T13:55:53.905Z</time></trkpt><trkpt lat="43.664561" lon="10.5420727"><ele>6.0</ele><time>2026-03-25T13:55:54.904Z</time></trkpt><trkpt lat="43.6645965" lon="10.5422137"><ele>6.0</ele><time>2026-03-25T13:55:55.905Z</time></trkpt><trkpt lat="43.6646259" lon="10.5423742"><ele>6.0</ele><time>2026-03-25T13:55:56.905Z</time></trkpt><trkpt lat="43.6646534" lon="10.5425552"><ele>6.0</ele><time>2026-03-25T13:55:57.903Z</time></trkpt><trkpt lat="43.6646868" lon="10.5427505"><ele>5.75</ele><time>2026-03-25T13:55:58.903Z</time></trkpt><trkpt lat="43.6647246" lon="10.542948"><ele>5.5</ele><time>2026-03-25T13:55:59.904Z</time></trkpt><trkpt lat="43.6647602" lon="10.5431453"><ele>5.25</ele><time>2026-03-25T13:56:00.903Z</time></trkpt><trkpt lat="43.6647921" lon="10.5433456"><ele>5.0</ele><time>2026-03-25T13:56:01.904Z</time></trkpt><trkpt lat="43.664826" lon="10.5435399"><ele>5.25</ele><time>2026-03-25T13:56:02.904Z</time></trkpt><trkpt lat="43.66486" lon="10.5437354"><ele>5.5</ele><time>2026-03-25T13:56:03.904Z</time></trkpt><trkpt lat="43.6648916" lon="10.543929"><ele>5.75</ele><time>2026-03-25T13:56:04.904Z</time></trkpt><trkpt lat="43.6649241" lon="10.5441086"><ele>6.0</ele><time>2026-03-25T13:56:05.904Z</time></trkpt><trkpt lat="43.6649571" lon="10.5442876"><ele>6.0</ele><time>2026-03-25T13:56:06.903Z</time></trkpt><trkpt lat="43.6649952" lon="10.5444671"><ele>6.0</ele><time>2026-03-25T13:56:07.905Z</time></trkpt><trkpt lat="43.665028" lon="10.5446491"><ele>6.0</ele><time>2026-03-25T13:56:08.904Z</time></trkpt><trkpt lat="43.6650602" lon="10.5448329"><ele>6.0</ele><time>2026-03-25T13:56:09.904Z</time></trkpt><trkpt lat="43.6650966" lon="10.5450212"><ele>6.0</ele><time>2026-03-25T13:56:10.904Z</time></trkpt><trkpt lat="43.6651303" lon="10.5452186"><ele>6.0</ele><time>2026-03-25T13:56:11.905Z</time></trkpt><trkpt lat="43.6651623" lon="10.5454193"><ele>6.0</ele><time>2026-03-25T13:56:12.905Z</time></trkpt><trkpt lat="43.6651959" lon="10.5456294"><ele>6.0</ele><time>2026-03-25T13:56:13.904Z</time></trkpt><trkpt lat="43.665226" lon="10.5458469"><ele>6.0</ele><time>2026-03-25T13:56:14.904Z</time></trkpt><trkpt lat="43.6652607" lon="10.5460682"><ele>6.0</ele><time>2026-03-25T13:56:15.904Z</time></trkpt><trkpt lat="43.6652979" lon="10.5462861"><ele>6.0</ele><time>2026-03-25T13:56:16.904Z</time></trkpt><trkpt lat="43.66534" lon="10.5465057"><ele>6.0</ele><time>2026-03-25T13:56:17.903Z</time></trkpt><trkpt lat="43.6653778" lon="10.546717"><ele>6.0</ele><time>2026-03-25T13:56:18.903Z</time></trkpt><trkpt lat="43.6654189" lon="10.5469302"><ele>6.0</ele><time>2026-03-25T13:56:19.903Z</time></trkpt><trkpt lat="43.6654575" lon="10.547156"><ele>6.0</ele><time>2026-03-25T13:56:20.903Z</time></trkpt><trkpt lat="43.6654962" lon="10.5473874"><ele>6.0</ele><time>2026-03-25T13:56:21.904Z</time></trkpt><trkpt lat="43.665535" lon="10.5476121"><ele>6.0</ele><time>2026-03-25T13:56:22.904Z</time></trkpt><trkpt lat="43.6655746" lon="10.5478364"><ele>6.0</ele><time>2026-03-25T13:56:23.903Z</time></trkpt><trkpt lat="43.6656114" lon="10.5480538"><ele>6.0</ele><time>2026-03-25T13:56:24.904Z</time></trkpt><trkpt lat="43.6656471" lon="10.5482642"><ele>6.333333333333334</ele><time>2026-03-25T13:56:25.904Z</time></trkpt><trkpt lat="43.665686" lon="10.548477"><ele>6.666666666666667</ele><time>2026-03-25T13:56:26.903Z</time></trkpt><trkpt lat="43.665722" lon="10.5486852"><ele>7.0</ele><time>2026-03-25T13:56:27.904Z</time></trkpt><trkpt lat="43.6657555" lon="10.5488976"><ele>7.0</ele><time>2026-03-25T13:56:28.905Z</time></trkpt><trkpt lat="43.6657922" lon="10.5491103"><ele>7.0</ele><time>2026-03-25T13:56:29.904Z</time></trkpt><trkpt lat="43.6658254" lon="10.5493162"><ele>7.0</ele><time>2026-03-25T13:56:30.904Z</time></trkpt><trkpt lat="43.6658617" lon="10.5495208"><ele>6.666666666666667</ele><time>2026-03-25T13:56:31.903Z</time></trkpt><trkpt lat="43.6658965" lon="10.5497225"><ele>6.333333333333334</ele><time>2026-03-25T13:56:32.904Z</time></trkpt><trkpt lat="43.6659332" lon="10.5499242"><ele>6.0</ele><time>2026-03-25T13:56:33.903Z</time></trkpt><trkpt lat="43.6659657" lon="10.5501284"><ele>6.0</ele><time>2026-03-25T13:56:34.904Z</time></trkpt><trkpt lat="43.6660048" lon="10.5503298"><ele>6.0</ele><time>2026-03-25T13:56:35.903Z</time></trkpt><trkpt lat="43.6660409" lon="10.5505315"><ele>6.0</ele><time>2026-03-25T13:56:36.903Z</time></trkpt><trkpt lat="43.666077" lon="10.5507145"><ele>6.0</ele><time>2026-03-25T13:56:37.903Z</time></trkpt><trkpt lat="43.6660999" lon="10.550906"><ele>6.0</ele><time>2026-03-25T13:56:38.903Z</time></trkpt><trkpt lat="43.6661341" lon="10.551093"><ele>6.0</ele><time>2026-03-25T13:56:39.904Z</time></trkpt><trkpt lat="43.6661646" lon="10.5512943"><ele>6.0</ele><time>2026-03-25T13:56:40.903Z</time></trkpt><trkpt lat="43.6662005" lon="10.5514939"><ele>6.0</ele><time>2026-03-25T13:56:41.903Z</time></trkpt><trkpt lat="43.6662358" lon="10.5517151"><ele>6.0</ele><time>2026-03-25T13:56:42.903Z</time></trkpt><trkpt lat="43.6662732" lon="10.5519439"><ele>6.0</ele><time>2026-03-25T13:56:43.905Z</time></trkpt><trkpt lat="43.6663186" lon="10.5521767"><ele>6.0</ele><time>2026-03-25T13:56:44.904Z</time></trkpt><trkpt lat="43.666362" lon="10.5524216"><ele>6.0</ele><time>2026-03-25T13:56:45.904Z</time></trkpt><trkpt lat="43.6664052" lon="10.552677"><ele>6.0</ele><time>2026-03-25T13:56:46.905Z</time></trkpt><trkpt lat="43.666451" lon="10.5529453"><ele>6.0</ele><time>2026-03-25T13:56:47.904Z</time></trkpt><trkpt lat="43.6665029" lon="10.5532244"><ele>5.666666666666667</ele><time>2026-03-25T13:56:48.905Z</time></trkpt><trkpt lat="43.6665492" lon="10.5534939"><ele>5.333333333333334</ele><time>2026-03-25T13:56:49.905Z</time></trkpt><trkpt lat="43.6665953" lon="10.5537679"><ele>5.0</ele><time>2026-03-25T13:56:50.904Z</time></trkpt><trkpt lat="43.6666393" lon="10.5540402"><ele>5.0</ele><time>2026-03-25T13:56:51.904Z</time></trkpt><trkpt lat="43.666683" lon="10.5543133"><ele>5.0</ele><time>2026-03-25T13:56:52.904Z</time></trkpt><trkpt lat="43.6667307" lon="10.5545772"><ele>5.0</ele><time>2026-03-25T13:56:53.904Z</time></trkpt><trkpt lat="43.6667784" lon="10.5548373"><ele>5.333333333333334</ele><time>2026-03-25T13:56:54.904Z</time></trkpt><trkpt lat="43.6668209" lon="10.5550974"><ele>5.666666666666667</ele><time>2026-03-25T13:56:55.904Z</time></trkpt><trkpt lat="43.6668703" lon="10.555349"><ele>6.0</ele><time>2026-03-25T13:56:56.904Z</time></trkpt><trkpt lat="43.6669164" lon="10.5556036"><ele>6.0</ele><time>2026-03-25T13:56:57.904Z</time></trkpt><trkpt lat="43.6669592" lon="10.5558605"><ele>6.0</ele><time>2026-03-25T13:56:58.904Z</time></trkpt><trkpt lat="43.6670034" lon="10.5561182"><ele>6.0</ele><time>2026-03-25T13:56:59.904Z</time></trkpt><trkpt lat="43.6670397" lon="10.5563605"><ele>6.0</ele><time>2026-03-25T13:57:00.904Z</time></trkpt><trkpt lat="43.667075" lon="10.5565969"><ele>6.0</ele><time>2026-03-25T13:57:01.904Z</time></trkpt><trkpt lat="43.6671213" lon="10.5568355"><ele>6.0</ele><time>2026-03-25T13:57:02.903Z</time></trkpt><trkpt lat="43.6671686" lon="10.5570718"><ele>5.6</ele><time>2026-03-25T13:57:03.903Z</time></trkpt><trkpt lat="43.6672077" lon="10.5572987"><ele>5.199999999999999</ele><time>2026-03-25T13:57:04.903Z</time></trkpt><trkpt lat="43.6672397" lon="10.557463"><ele>4.800000000000001</ele><time>2026-03-25T13:57:05.903Z</time></trkpt><trkpt lat="43.6672627" lon="10.55756"><ele>4.4</ele><time>2026-03-25T13:57:06.903Z</time></trkpt><trkpt lat="43.6672917" lon="10.55766"><ele>4.0</ele><time>2026-03-25T13:57:08.903Z</time></trkpt><trkpt lat="43.6673127" lon="10.5577572"><ele>4.75</ele><time>2026-03-25T13:57:10.904Z</time></trkpt><trkpt lat="43.6673238" lon="10.557941"><ele>5.5</ele><time>2026-03-25T13:57:12.904Z</time></trkpt><trkpt lat="43.6673389" lon="10.558061"><ele>6.25</ele><time>2026-03-25T13:57:13.903Z</time></trkpt><trkpt lat="43.6673667" lon="10.5582128"><ele>7.0</ele><time>2026-03-25T13:57:14.903Z</time></trkpt><trkpt lat="43.6674026" lon="10.5583847"><ele>7.0</ele><time>2026-03-25T13:57:15.904Z</time></trkpt><trkpt lat="43.6674351" lon="10.5585843"><ele>7.0</ele><time>2026-03-25T13:57:16.903Z</time></trkpt><trkpt lat="43.6674673" lon="10.5587917"><ele>7.0</ele><time>2026-03-25T13:57:17.903Z</time></trkpt><trkpt lat="43.6674923" lon="10.5589975"><ele>7.0</ele><time>2026-03-25T13:57:18.905Z</time></trkpt><trkpt lat="43.6675319" lon="10.559216"><ele>7.0</ele><time>2026-03-25T13:57:19.905Z</time></trkpt><trkpt lat="43.6675741" lon="10.5594457"><ele>7.0</ele><time>2026-03-25T13:57:20.903Z</time></trkpt><trkpt lat="43.6676173" lon="10.5596902"><ele>6.333333333333334</ele><time>2026-03-25T13:57:21.903Z</time></trkpt><trkpt lat="43.6676622" lon="10.5599528"><ele>5.666666666666667</ele><time>2026-03-25T13:57:22.903Z</time></trkpt><trkpt lat="43.6677068" lon="10.5602031"><ele>5.0</ele><time>2026-03-25T13:57:23.904Z</time></trkpt><trkpt lat="43.6677497" lon="10.560458"><ele>5.333333333333334</ele><time>2026-03-25T13:57:24.903Z</time></trkpt><trkpt lat="43.6677966" lon="10.560708"><ele>5.666666666666667</ele><time>2026-03-25T13:57:25.905Z</time></trkpt><trkpt lat="43.6678451" lon="10.5609621"><ele>6.0</ele><time>2026-03-25T13:57:26.904Z</time></trkpt><trkpt lat="43.6678893" lon="10.5612168"><ele>6.333333333333334</ele><time>2026-03-25T13:57:27.904Z</time></trkpt><trkpt lat="43.6679297" lon="10.5614599"><ele>6.666666666666667</ele><time>2026-03-25T13:57:28.903Z</time></trkpt><trkpt lat="43.6679696" lon="10.561692"><ele>7.0</ele><time>2026-03-25T13:57:29.904Z</time></trkpt><trkpt lat="43.6680136" lon="10.5619255"><ele>7.0</ele><time>2026-03-25T13:57:30.904Z</time></trkpt><trkpt lat="43.668056" lon="10.5621706"><ele>7.0</ele><time>2026-03-25T13:57:31.903Z</time></trkpt><trkpt lat="43.6681034" lon="10.562423"><ele>7.0</ele><time>2026-03-25T13:57:32.903Z</time></trkpt><trkpt lat="43.6681476" lon="10.5626778"><ele>7.333333333333334</ele><time>2026-03-25T13:57:33.904Z</time></trkpt><trkpt lat="43.6681898" lon="10.5629304"><ele>7.666666666666666</ele><time>2026-03-25T13:57:34.903Z</time></trkpt><trkpt lat="43.6682304" lon="10.5631882"><ele>8.0</ele><time>2026-03-25T13:57:35.904Z</time></trkpt><trkpt lat="43.6682737" lon="10.5634512"><ele>7.333333333333333</ele><time>2026-03-25T13:57:36.903Z</time></trkpt><trkpt lat="43.6683161" lon="10.5637123"><ele>6.666666666666666</ele><time>2026-03-25T13:57:37.905Z</time></trkpt><trkpt lat="43.6683604" lon="10.5639782"><ele>6.0</ele><time>2026-03-25T13:57:38.905Z</time></trkpt><trkpt lat="43.6684124" lon="10.5642355"><ele>6.0</ele><time>2026-03-25T13:57:39.905Z</time></trkpt><trkpt lat="43.6684509" lon="10.5644897"><ele>6.0</ele><time>2026-03-25T13:57:40.904Z</time></trkpt><trkpt lat="43.6684973" lon="10.5647632"><ele>6.0</ele><time>2026-03-25T13:57:41.905Z</time></trkpt><trkpt lat="43.6685535" lon="10.5650195"><ele>6.0</ele><time>2026-03-25T13:57:42.904Z</time></trkpt><trkpt lat="43.668599" lon="10.5653181"><ele>6.0</ele><time>2026-03-25T13:57:43.904Z</time></trkpt><trkpt lat="43.6686462" lon="10.5655991"><ele>6.0</ele><time>2026-03-25T13:57:44.904Z</time></trkpt><trkpt lat="43.6686979" lon="10.5658828"><ele>6.333333333333334</ele><time>2026-03-25T13:57:45.904Z</time></trkpt><trkpt lat="43.6687462" lon="10.5661696"><ele>6.666666666666667</ele><time>2026-03-25T13:57:46.904Z</time></trkpt><trkpt lat="43.6687986" lon="10.5664764"><ele>7.0</ele><time>2026-03-25T13:57:47.904Z</time></trkpt><trkpt lat="43.6688456" lon="10.5667623"><ele>7.0</ele><time>2026-03-25T13:57:48.904Z</time></trkpt><trkpt lat="43.6688876" lon="10.5670384"><ele>7.0</ele><time>2026-03-25T13:57:49.905Z</time></trkpt><trkpt lat="43.6689354" lon="10.5673008"><ele>7.0</ele><time>2026-03-25T13:57:50.903Z</time></trkpt><trkpt lat="43.668978" lon="10.567551"><ele>7.0</ele><time>2026-03-25T13:57:51.903Z</time></trkpt><trkpt lat="43.6690184" lon="10.5677958"><ele>7.0</ele><time>2026-03-25T13:57:52.904Z</time></trkpt><trkpt lat="43.6690572" lon="10.5680364"><ele>7.0</ele><time>2026-03-25T13:57:53.903Z</time></trkpt><trkpt lat="43.6691017" lon="10.5682627"><ele>6.75</ele><time>2026-03-25T13:57:54.904Z</time></trkpt><trkpt lat="43.6691544" lon="10.5684704"><ele>6.5</ele><time>2026-03-25T13:57:55.905Z</time></trkpt><trkpt lat="43.6692236" lon="10.5686369"><ele>6.25</ele><time>2026-03-25T13:57:56.903Z</time></trkpt><trkpt lat="43.6693048" lon="10.5687692"><ele>6.0</ele><time>2026-03-25T13:57:57.903Z</time></trkpt><trkpt lat="43.6694023" lon="10.5688779"><ele>6.5</ele><time>2026-03-25T13:57:58.904Z</time></trkpt><trkpt lat="43.6695157" lon="10.5689655"><ele>7.0</ele><time>2026-03-25T13:57:59.904Z</time></trkpt><trkpt lat="43.6696416" lon="10.5690313"><ele>7.5</ele><time>2026-03-25T13:58:00.904Z</time></trkpt><trkpt lat="43.6697789" lon="10.5690867"><ele>8.0</ele><time>2026-03-25T13:58:01.904Z</time></trkpt><trkpt lat="43.6699217" lon="10.5691366"><ele>8.0</ele><time>2026-03-25T13:58:02.903Z</time></trkpt><trkpt lat="43.6700593" lon="10.5691922"><ele>8.0</ele><time>2026-03-25T13:58:03.903Z</time></trkpt><trkpt lat="43.6701935" lon="10.5692485"><ele>8.0</ele><time>2026-03-25T13:58:04.903Z</time></trkpt><trkpt lat="43.6703456" lon="10.5693023"><ele>8.0</ele><time>2026-03-25T13:58:05.904Z</time></trkpt><trkpt lat="43.6705137" lon="10.5693642"><ele>8.0</ele><time>2026-03-25T13:58:06.904Z</time></trkpt><trkpt lat="43.6706745" lon="10.569427"><ele>8.0</ele><time>2026-03-25T13:58:07.903Z</time></trkpt><trkpt lat="43.6708307" lon="10.5694869"><ele>8.0</ele><time>2026-03-25T13:58:08.904Z</time></trkpt><trkpt lat="43.6709769" lon="10.5695378"><ele>8.75</ele><time>2026-03-25T13:58:09.903Z</time></trkpt><trkpt lat="43.671109" lon="10.5695893"><ele>9.5</ele><time>2026-03-25T13:58:10.904Z</time></trkpt><trkpt lat="43.6712271" lon="10.5696507"><ele>10.25</ele><time>2026-03-25T13:58:11.905Z</time></trkpt><trkpt lat="43.671328" lon="10.56973"><ele>11.0</ele><time>2026-03-25T13:58:12.904Z</time></trkpt><trkpt lat="43.6714127" lon="10.569824"><ele>11.0</ele><time>2026-03-25T13:58:13.903Z</time></trkpt><trkpt lat="43.6714752" lon="10.5699361"><ele>11.0</ele><time>2026-03-25T13:58:14.903Z</time></trkpt><trkpt lat="43.6715199" lon="10.5700413"><ele>11.0</ele><time>2026-03-25T13:58:15.905Z</time></trkpt><trkpt lat="43.6715518" lon="10.5701459"><ele>11.0</ele><time>2026-03-25T13:58:16.904Z</time></trkpt><trkpt lat="43.671577" lon="10.5702514"><ele>11.0</ele><time>2026-03-25T13:58:17.903Z</time></trkpt><trkpt lat="43.6715913" lon="10.5703613"><ele>11.0</ele><time>2026-03-25T13:58:18.904Z</time></trkpt><trkpt lat="43.6715895" lon="10.5704792"><ele>11.200000000000001</ele><time>2026-03-25T13:58:19.904Z</time></trkpt><trkpt lat="43.6715754" lon="10.5705994"><ele>11.4</ele><time>2026-03-25T13:58:20.903Z</time></trkpt><trkpt lat="43.6715591" lon="10.5707349"><ele>11.6</ele><time>2026-03-25T13:58:21.903Z</time></trkpt><trkpt lat="43.671544" lon="10.5708793"><ele>11.8</ele><time>2026-03-25T13:58:22.904Z</time></trkpt><trkpt lat="43.6715328" lon="10.5710425"><ele>12.0</ele><time>2026-03-25T13:58:23.904Z</time></trkpt><trkpt lat="43.6715192" lon="10.5712105"><ele>12.2</ele><time>2026-03-25T13:58:24.904Z</time></trkpt><trkpt lat="43.6715046" lon="10.5713648"><ele>12.399999999999999</ele><time>2026-03-25T13:58:25.904Z</time></trkpt><trkpt lat="43.6714891" lon="10.5715124"><ele>12.600000000000001</ele><time>2026-03-25T13:58:26.904Z</time></trkpt><trkpt lat="43.6714745" lon="10.5716583"><ele>12.8</ele><time>2026-03-25T13:58:27.904Z</time></trkpt><trkpt lat="43.6714558" lon="10.5718074"><ele>13.0</ele><time>2026-03-25T13:58:28.904Z</time></trkpt><trkpt lat="43.6714362" lon="10.5719555"><ele>12.8</ele><time>2026-03-25T13:58:29.904Z</time></trkpt><trkpt lat="43.6714125" lon="10.5721031"><ele>12.600000000000001</ele><time>2026-03-25T13:58:30.905Z</time></trkpt><trkpt lat="43.6713837" lon="10.5722464"><ele>12.399999999999999</ele><time>2026-03-25T13:58:31.904Z</time></trkpt><trkpt lat="43.671351" lon="10.5723854"><ele>12.2</ele><time>2026-03-25T13:58:32.905Z</time></trkpt><trkpt lat="43.6713134" lon="10.5725317"><ele>12.0</ele><time>2026-03-25T13:58:33.904Z</time></trkpt><trkpt lat="43.6712776" lon="10.5726802"><ele>12.0</ele><time>2026-03-25T13:58:34.904Z</time></trkpt><trkpt lat="43.6712423" lon="10.5728164"><ele>12.0</ele><time>2026-03-25T13:58:35.903Z</time></trkpt><trkpt lat="43.6712087" lon="10.5729506"><ele>12.0</ele><time>2026-03-25T13:58:36.905Z</time></trkpt><trkpt lat="43.6711806" lon="10.5730797"><ele>12.0</ele><time>2026-03-25T13:58:37.903Z</time></trkpt><trkpt lat="43.6711521" lon="10.573208"><ele>12.0</ele><time>2026-03-25T13:58:38.904Z</time></trkpt><trkpt lat="43.6711258" lon="10.573341"><ele>12.2</ele><time>2026-03-25T13:58:39.904Z</time></trkpt><trkpt lat="43.6710998" lon="10.5734672"><ele>12.399999999999999</ele><time>2026-03-25T13:58:40.903Z</time></trkpt><trkpt lat="43.6710739" lon="10.5735862"><ele>12.600000000000001</ele><time>2026-03-25T13:58:41.904Z</time></trkpt><trkpt lat="43.6710668" lon="10.573695"><ele>12.8</ele><time>2026-03-25T13:58:42.904Z</time></trkpt><trkpt lat="43.6710746" lon="10.5737896"><ele>13.0</ele><time>2026-03-25T13:58:43.903Z</time></trkpt><trkpt lat="43.6710911" lon="10.5739515"><ele>12.999999999999998</ele><time>2026-03-25T13:58:45.904Z</time></trkpt><trkpt lat="43.6710853" lon="10.5740463"><ele>13.0</ele><time>2026-03-25T13:58:46.903Z</time></trkpt><trkpt lat="43.6710667" lon="10.5741489"><ele>13.0</ele><time>2026-03-25T13:58:47.903Z</time></trkpt><trkpt lat="43.6710428" lon="10.5742675"><ele>13.0</ele><time>2026-03-25T13:58:48.905Z</time></trkpt><trkpt lat="43.6710177" lon="10.5743876"><ele>12.999999999999998</ele><time>2026-03-25T13:58:49.904Z</time></trkpt><trkpt lat="43.6709775" lon="10.5744961"><ele>13.0</ele><time>2026-03-25T13:58:50.904Z</time></trkpt><trkpt lat="43.6709272" lon="10.5746005"><ele>12.833333333333332</ele><time>2026-03-25T13:58:51.904Z</time></trkpt><trkpt lat="43.6708753" lon="10.5746977"><ele>12.666666666666666</ele><time>2026-03-25T13:58:52.903Z</time></trkpt><trkpt lat="43.6708283" lon="10.5747983"><ele>12.5</ele><time>2026-03-25T13:58:53.905Z</time></trkpt><trkpt lat="43.6707911" lon="10.5749052"><ele>12.333333333333332</ele><time>2026-03-25T13:58:54.904Z</time></trkpt><trkpt lat="43.6707629" lon="10.5750126"><ele>12.166666666666666</ele><time>2026-03-25T13:58:55.903Z</time></trkpt><trkpt lat="43.6707432" lon="10.5751244"><ele>12.0</ele><time>2026-03-25T13:58:56.903Z</time></trkpt><trkpt lat="43.670722" lon="10.5752411"><ele>12.0</ele><time>2026-03-25T13:58:57.904Z</time></trkpt><trkpt lat="43.6706965" lon="10.5753673"><ele>12.0</ele><time>2026-03-25T13:58:58.903Z</time></trkpt><trkpt lat="43.6706696" lon="10.575492"><ele>12.0</ele><time>2026-03-25T13:58:59.903Z</time></trkpt><trkpt lat="43.670646" lon="10.5756104"><ele>12.0</ele><time>2026-03-25T13:59:00.903Z</time></trkpt><trkpt lat="43.6706285" lon="10.5757248"><ele>12.0</ele><time>2026-03-25T13:59:01.904Z</time></trkpt><trkpt lat="43.6705994" lon="10.5758433"><ele>12.0</ele><time>2026-03-25T13:59:02.905Z</time></trkpt><trkpt lat="43.6705758" lon="10.5759664"><ele>12.0</ele><time>2026-03-25T13:59:03.904Z</time></trkpt><trkpt lat="43.6705494" lon="10.5760903"><ele>12.0</ele><time>2026-03-25T13:59:04.905Z</time></trkpt><trkpt lat="43.6705227" lon="10.5762229"><ele>12.0</ele><time>2026-03-25T13:59:05.904Z</time></trkpt><trkpt lat="43.6704945" lon="10.5763597"><ele>12.0</ele><time>2026-03-25T13:59:06.904Z</time></trkpt><trkpt lat="43.6704651" lon="10.5764965"><ele>12.0</ele><time>2026-03-25T13:59:07.904Z</time></trkpt><trkpt lat="43.6704368" lon="10.5766361"><ele>12.0</ele><time>2026-03-25T13:59:08.903Z</time></trkpt><trkpt lat="43.6704079" lon="10.5767746"><ele>12.0</ele><time>2026-03-25T13:59:09.903Z</time></trkpt><trkpt lat="43.6703837" lon="10.5769167"><ele>12.0</ele><time>2026-03-25T13:59:10.905Z</time></trkpt><trkpt lat="43.6703573" lon="10.5770587"><ele>12.0</ele><time>2026-03-25T13:59:11.904Z</time></trkpt><trkpt lat="43.6703272" lon="10.5772041"><ele>12.0</ele><time>2026-03-25T13:59:12.903Z</time></trkpt><trkpt lat="43.6702989" lon="10.5773491"><ele>12.0</ele><time>2026-03-25T13:59:13.903Z</time></trkpt><trkpt lat="43.6702705" lon="10.5774956"><ele>12.0</ele><time>2026-03-25T13:59:14.904Z</time></trkpt><trkpt lat="43.6702468" lon="10.5776317"><ele>12.0</ele><time>2026-03-25T13:59:15.904Z</time></trkpt><trkpt lat="43.6702247" lon="10.5777637"><ele>12.0</ele><time>2026-03-25T13:59:16.905Z</time></trkpt><trkpt lat="43.6702111" lon="10.5778933"><ele>12.2</ele><time>2026-03-25T13:59:17.905Z</time></trkpt><trkpt lat="43.6702073" lon="10.5780187"><ele>12.399999999999999</ele><time>2026-03-25T13:59:18.904Z</time></trkpt><trkpt lat="43.6702112" lon="10.5781505"><ele>12.600000000000001</ele><time>2026-03-25T13:59:19.904Z</time></trkpt><trkpt lat="43.6702235" lon="10.5782827"><ele>12.8</ele><time>2026-03-25T13:59:20.905Z</time></trkpt><trkpt lat="43.6702445" lon="10.5784061"><ele>13.0</ele><time>2026-03-25T13:59:21.903Z</time></trkpt><trkpt lat="43.6702738" lon="10.5785323"><ele>13.2</ele><time>2026-03-25T13:59:22.903Z</time></trkpt><trkpt lat="43.6703071" lon="10.5786523"><ele>13.4</ele><time>2026-03-25T13:59:23.903Z</time></trkpt><trkpt lat="43.6703417" lon="10.5787769"><ele>13.599999999999998</ele><time>2026-03-25T13:59:24.905Z</time></trkpt><trkpt lat="43.6703809" lon="10.578895"><ele>13.799999999999999</ele><time>2026-03-25T13:59:25.904Z</time></trkpt><trkpt lat="43.6704176" lon="10.5790056"><ele>14.0</ele><time>2026-03-25T13:59:26.904Z</time></trkpt><trkpt lat="43.6704527" lon="10.5791129"><ele>13.666666666666668</ele><time>2026-03-25T13:59:27.905Z</time></trkpt><trkpt lat="43.6704835" lon="10.5792169"><ele>13.333333333333334</ele><time>2026-03-25T13:59:28.904Z</time></trkpt><trkpt lat="43.6705165" lon="10.5793116"><ele>13.0</ele><time>2026-03-25T13:59:29.903Z</time></trkpt><trkpt lat="43.6705499" lon="10.5794113"><ele>12.666666666666668</ele><time>2026-03-25T13:59:30.903Z</time></trkpt><trkpt lat="43.670585" lon="10.5795037"><ele>12.333333333333334</ele><time>2026-03-25T13:59:31.904Z</time></trkpt><trkpt lat="43.6706091" lon="10.5795981"><ele>12.0</ele><time>2026-03-25T13:59:32.905Z</time></trkpt><trkpt lat="43.6706289" lon="10.5796933"><ele>12.0</ele><time>2026-03-25T13:59:33.904Z</time></trkpt><trkpt lat="43.6706388" lon="10.5797876"><ele>12.0</ele><time>2026-03-25T13:59:34.904Z</time></trkpt><trkpt lat="43.6706466" lon="10.5798829"><ele>12.0</ele><time>2026-03-25T13:59:35.904Z</time></trkpt><trkpt lat="43.6706487" lon="10.5799734"><ele>12.0</ele><time>2026-03-25T13:59:36.905Z</time></trkpt><trkpt lat="43.6706559" lon="10.5801413"><ele>12.0</ele><time>2026-03-25T13:59:38.904Z</time></trkpt><trkpt lat="43.6706602" lon="10.5803004"><ele>12.0</ele><time>2026-03-25T13:59:40.903Z</time></trkpt><trkpt lat="43.6706561" lon="10.5804362"><ele>12.0</ele><time>2026-03-25T13:59:42.905Z</time></trkpt><trkpt lat="43.6706488" lon="10.5805458"><ele>12.0</ele><time>2026-03-25T13:59:44.905Z</time></trkpt><trkpt lat="43.6706404" lon="10.5806582"><ele>12.0</ele><time>2026-03-25T13:59:46.904Z</time></trkpt><trkpt lat="43.6706345" lon="10.5807754"><ele>12.0</ele><time>2026-03-25T13:59:49.904Z</time></trkpt><trkpt lat="43.6706333" lon="10.580896"><ele>12.0</ele><time>2026-03-25T13:59:52.904Z</time></trkpt><trkpt lat="43.6706391" lon="10.5810382"><ele>12.0</ele><time>2026-03-25T13:59:54.905Z</time></trkpt><trkpt lat="43.6706315" lon="10.5811796"><ele>11.666666666666666</ele><time>2026-03-25T13:59:56.904Z</time></trkpt><trkpt lat="43.6706121" lon="10.5813397"><ele>11.333333333333334</ele><time>2026-03-25T13:59:58.904Z</time></trkpt><trkpt lat="43.6706001" lon="10.5814266"><ele>11.0</ele><time>2026-03-25T13:59:59.903Z</time></trkpt><trkpt lat="43.6705862" lon="10.5815193"><ele>10.666666666666668</ele><time>2026-03-25T14:00:00.903Z</time></trkpt><trkpt lat="43.6705703" lon="10.5816039"><ele>10.333333333333334</ele><time>2026-03-25T14:00:01.904Z</time></trkpt><trkpt lat="43.6705365" lon="10.5817439"><ele>10.0</ele><time>2026-03-25T14:00:03.905Z</time></trkpt><trkpt lat="43.6705007" lon="10.5818387"><ele>10.0</ele><time>2026-03-25T14:00:05.903Z</time></trkpt><trkpt lat="43.6704395" lon="10.5818713"><ele>10.0</ele><time>2026-03-25T14:00:07.904Z</time></trkpt><trkpt lat="43.6703601" lon="10.5818315"><ele>10.0</ele><time>2026-03-25T14:00:09.904Z</time></trkpt><trkpt lat="43.670305" lon="10.5817817"><ele>10.0</ele><time>2026-03-25T14:00:11.904Z</time></trkpt></trkseg></trk></gpx>